<?xml version="1.0" encoding="UTF-8" standalone="no" ?>
<gpx xmlns="http://www.topografix.com/GPX/1/1" xmlns:xsi="http://www.w3.org/2001/XMLSchema-instance" xsi:schemaLocation="http://www.topografix.com/GPX/1/1 http://www.topografix.com/GPX/1/1/gpx.xsd" version="1.1" creator="VisuGPX - https://www.visugpx.com">
  <metadata>
    <name>Houlgate vers Thalasso Cabourg</name>
    <desc><![CDATA[L'hôtel des bains jouxte la thalasso de Cabourg]]></desc>
  </metadata>
  <trk>
    <name><![CDATA[Houlgate vers Thalasso Cabourg_1]]></name>
    <trkseg>
      <trkpt lat="49.30211" lon="-0.078">
        <ele>11</ele>
        <time>2018-04-16T13:15:35Z</time>
      </trkpt>
      <trkpt lat="49.30211" lon="-0.078">
        <ele>11</ele>
        <time>2018-04-16T13:15:36Z</time>
      </trkpt>
      <trkpt lat="49.30211" lon="-0.07803">
        <ele>11</ele>
        <time>2018-04-16T13:15:43Z</time>
      </trkpt>
      <trkpt lat="49.30214" lon="-0.078">
        <ele>11</ele>
        <time>2018-04-16T13:15:50Z</time>
      </trkpt>
      <trkpt lat="49.30219" lon="-0.07807">
        <ele>10</ele>
        <time>2018-04-16T13:15:57Z</time>
      </trkpt>
      <trkpt lat="49.30223" lon="-0.07811">
        <ele>10</ele>
        <time>2018-04-16T13:16:04Z</time>
      </trkpt>
      <trkpt lat="49.30228" lon="-0.07814">
        <ele>10</ele>
        <time>2018-04-16T13:16:11Z</time>
      </trkpt>
      <trkpt lat="49.30231" lon="-0.07818">
        <ele>10</ele>
        <time>2018-04-16T13:16:18Z</time>
      </trkpt>
      <trkpt lat="49.30236" lon="-0.07824">
        <ele>10</ele>
        <time>2018-04-16T13:16:25Z</time>
      </trkpt>
      <trkpt lat="49.30241" lon="-0.07834">
        <ele>9</ele>
        <time>2018-04-16T13:16:32Z</time>
      </trkpt>
      <trkpt lat="49.30246" lon="-0.07842">
        <ele>9</ele>
        <time>2018-04-16T13:16:39Z</time>
      </trkpt>
      <trkpt lat="49.30248" lon="-0.07854">
        <ele>9</ele>
        <time>2018-04-16T13:16:44Z</time>
      </trkpt>
      <trkpt lat="49.30253" lon="-0.07864">
        <ele>9</ele>
        <time>2018-04-16T13:16:51Z</time>
      </trkpt>
      <trkpt lat="49.30257" lon="-0.07874">
        <ele>9</ele>
        <time>2018-04-16T13:16:57Z</time>
      </trkpt>
      <trkpt lat="49.30258" lon="-0.07884">
        <ele>9</ele>
        <time>2018-04-16T13:17:03Z</time>
      </trkpt>
      <trkpt lat="49.30261" lon="-0.07896">
        <ele>9</ele>
        <time>2018-04-16T13:17:09Z</time>
      </trkpt>
      <trkpt lat="49.30263" lon="-0.07907">
        <ele>9</ele>
        <time>2018-04-16T13:17:16Z</time>
      </trkpt>
      <trkpt lat="49.3027" lon="-0.0791">
        <ele>9</ele>
        <time>2018-04-16T13:17:23Z</time>
      </trkpt>
      <trkpt lat="49.30273" lon="-0.07921">
        <ele>7</ele>
        <time>2018-04-16T13:17:30Z</time>
      </trkpt>
      <trkpt lat="49.30269" lon="-0.07932">
        <ele>7</ele>
        <time>2018-04-16T13:17:35Z</time>
      </trkpt>
      <trkpt lat="49.30266" lon="-0.07942">
        <ele>7</ele>
        <time>2018-04-16T13:17:40Z</time>
      </trkpt>
      <trkpt lat="49.30265" lon="-0.07953">
        <ele>7</ele>
        <time>2018-04-16T13:17:47Z</time>
      </trkpt>
      <trkpt lat="49.30261" lon="-0.07964">
        <ele>7</ele>
        <time>2018-04-16T13:17:54Z</time>
      </trkpt>
      <trkpt lat="49.30258" lon="-0.07973">
        <ele>6</ele>
        <time>2018-04-16T13:18:00Z</time>
      </trkpt>
      <trkpt lat="49.30254" lon="-0.07982">
        <ele>7</ele>
        <time>2018-04-16T13:18:06Z</time>
      </trkpt>
      <trkpt lat="49.30249" lon="-0.07993">
        <ele>8</ele>
        <time>2018-04-16T13:18:12Z</time>
      </trkpt>
      <trkpt lat="49.30245" lon="-0.08002">
        <ele>7</ele>
        <time>2018-04-16T13:18:17Z</time>
      </trkpt>
      <trkpt lat="49.30244" lon="-0.08015">
        <ele>7</ele>
        <time>2018-04-16T13:18:23Z</time>
      </trkpt>
      <trkpt lat="49.30244" lon="-0.08027">
        <ele>7</ele>
        <time>2018-04-16T13:18:29Z</time>
      </trkpt>
      <trkpt lat="49.30242" lon="-0.08038">
        <ele>7</ele>
        <time>2018-04-16T13:18:36Z</time>
      </trkpt>
      <trkpt lat="49.30239" lon="-0.08049">
        <ele>7</ele>
        <time>2018-04-16T13:18:42Z</time>
      </trkpt>
      <trkpt lat="49.30232" lon="-0.08056">
        <ele>7</ele>
        <time>2018-04-16T13:18:48Z</time>
      </trkpt>
      <trkpt lat="49.30228" lon="-0.08064">
        <ele>6</ele>
        <time>2018-04-16T13:18:54Z</time>
      </trkpt>
      <trkpt lat="49.30223" lon="-0.08076">
        <ele>6</ele>
        <time>2018-04-16T13:19:01Z</time>
      </trkpt>
      <trkpt lat="49.30219" lon="-0.08086">
        <ele>6</ele>
        <time>2018-04-16T13:19:07Z</time>
      </trkpt>
      <trkpt lat="49.30216" lon="-0.08099">
        <ele>6</ele>
        <time>2018-04-16T13:19:14Z</time>
      </trkpt>
      <trkpt lat="49.30211" lon="-0.08108">
        <ele>7</ele>
        <time>2018-04-16T13:19:20Z</time>
      </trkpt>
      <trkpt lat="49.30206" lon="-0.08118">
        <ele>7</ele>
        <time>2018-04-16T13:19:27Z</time>
      </trkpt>
      <trkpt lat="49.30203" lon="-0.08127">
        <ele>7</ele>
        <time>2018-04-16T13:19:32Z</time>
      </trkpt>
      <trkpt lat="49.30198" lon="-0.08139">
        <ele>7</ele>
        <time>2018-04-16T13:19:38Z</time>
      </trkpt>
      <trkpt lat="49.30195" lon="-0.08149">
        <ele>7</ele>
        <time>2018-04-16T13:19:44Z</time>
      </trkpt>
      <trkpt lat="49.30192" lon="-0.0816">
        <ele>7</ele>
        <time>2018-04-16T13:19:50Z</time>
      </trkpt>
      <trkpt lat="49.30192" lon="-0.08168">
        <ele>6</ele>
        <time>2018-04-16T13:19:57Z</time>
      </trkpt>
      <trkpt lat="49.30186" lon="-0.08175">
        <ele>6</ele>
        <time>2018-04-16T13:20:02Z</time>
      </trkpt>
      <trkpt lat="49.3018" lon="-0.08186">
        <ele>6</ele>
        <time>2018-04-16T13:20:09Z</time>
      </trkpt>
      <trkpt lat="49.3018" lon="-0.08187">
        <ele>6</ele>
        <time>2018-04-16T13:20:16Z</time>
      </trkpt>
      <trkpt lat="49.3018" lon="-0.08187">
        <ele>6</ele>
        <time>2018-04-16T13:20:19Z</time>
      </trkpt>
      <trkpt lat="49.3018" lon="-0.08187">
        <ele>6</ele>
        <time>2018-04-16T13:20:27Z</time>
      </trkpt>
      <trkpt lat="49.3018" lon="-0.08187">
        <ele>6</ele>
        <time>2018-04-16T13:20:28Z</time>
      </trkpt>
      <trkpt lat="49.30182" lon="-0.08187">
        <ele>6</ele>
        <time>2018-04-16T13:20:51Z</time>
      </trkpt>
      <trkpt lat="49.30182" lon="-0.08187">
        <ele>6</ele>
        <time>2018-04-16T13:20:52Z</time>
      </trkpt>
      <trkpt lat="49.3018" lon="-0.08189">
        <ele>6</ele>
        <time>2018-04-16T13:21:01Z</time>
      </trkpt>
      <trkpt lat="49.30175" lon="-0.08197">
        <ele>6</ele>
        <time>2018-04-16T13:21:08Z</time>
      </trkpt>
      <trkpt lat="49.30168" lon="-0.08203">
        <ele>5</ele>
        <time>2018-04-16T13:21:14Z</time>
      </trkpt>
      <trkpt lat="49.30162" lon="-0.0821">
        <ele>5</ele>
        <time>2018-04-16T13:21:20Z</time>
      </trkpt>
      <trkpt lat="49.30155" lon="-0.08215">
        <ele>5</ele>
        <time>2018-04-16T13:21:26Z</time>
      </trkpt>
      <trkpt lat="49.30149" lon="-0.08222">
        <ele>5</ele>
        <time>2018-04-16T13:21:32Z</time>
      </trkpt>
      <trkpt lat="49.30143" lon="-0.0823">
        <ele>5</ele>
        <time>2018-04-16T13:21:39Z</time>
      </trkpt>
      <trkpt lat="49.30139" lon="-0.08233">
        <ele>5</ele>
        <time>2018-04-16T13:21:46Z</time>
      </trkpt>
      <trkpt lat="49.30132" lon="-0.08241">
        <ele>5</ele>
        <time>2018-04-16T13:21:52Z</time>
      </trkpt>
      <trkpt lat="49.30125" lon="-0.08248">
        <ele>5</ele>
        <time>2018-04-16T13:21:58Z</time>
      </trkpt>
      <trkpt lat="49.30118" lon="-0.08256">
        <ele>4</ele>
        <time>2018-04-16T13:22:04Z</time>
      </trkpt>
      <trkpt lat="49.30111" lon="-0.08261">
        <ele>5</ele>
        <time>2018-04-16T13:22:11Z</time>
      </trkpt>
      <trkpt lat="49.30104" lon="-0.08267">
        <ele>5</ele>
        <time>2018-04-16T13:22:17Z</time>
      </trkpt>
      <trkpt lat="49.30098" lon="-0.08272">
        <ele>5</ele>
        <time>2018-04-16T13:22:23Z</time>
      </trkpt>
      <trkpt lat="49.30091" lon="-0.08278">
        <ele>5</ele>
        <time>2018-04-16T13:22:30Z</time>
      </trkpt>
      <trkpt lat="49.30083" lon="-0.08285">
        <ele>5</ele>
        <time>2018-04-16T13:22:36Z</time>
      </trkpt>
      <trkpt lat="49.30078" lon="-0.08293">
        <ele>5</ele>
        <time>2018-04-16T13:22:42Z</time>
      </trkpt>
      <trkpt lat="49.30072" lon="-0.083">
        <ele>5</ele>
        <time>2018-04-16T13:22:47Z</time>
      </trkpt>
      <trkpt lat="49.30064" lon="-0.08307">
        <ele>5</ele>
        <time>2018-04-16T13:22:54Z</time>
      </trkpt>
      <trkpt lat="49.30059" lon="-0.08312">
        <ele>5</ele>
        <time>2018-04-16T13:23:01Z</time>
      </trkpt>
      <trkpt lat="49.30052" lon="-0.08318">
        <ele>5</ele>
        <time>2018-04-16T13:23:07Z</time>
      </trkpt>
      <trkpt lat="49.30049" lon="-0.08321">
        <ele>5</ele>
        <time>2018-04-16T13:23:14Z</time>
      </trkpt>
      <trkpt lat="49.30043" lon="-0.08328">
        <ele>5</ele>
        <time>2018-04-16T13:23:21Z</time>
      </trkpt>
      <trkpt lat="49.30035" lon="-0.08333">
        <ele>5</ele>
        <time>2018-04-16T13:23:27Z</time>
      </trkpt>
      <trkpt lat="49.30028" lon="-0.08339">
        <ele>5</ele>
        <time>2018-04-16T13:23:32Z</time>
      </trkpt>
      <trkpt lat="49.30021" lon="-0.08344">
        <ele>5</ele>
        <time>2018-04-16T13:23:37Z</time>
      </trkpt>
      <trkpt lat="49.30014" lon="-0.08348">
        <ele>5</ele>
        <time>2018-04-16T13:23:43Z</time>
      </trkpt>
      <trkpt lat="49.30008" lon="-0.08358">
        <ele>5</ele>
        <time>2018-04-16T13:23:49Z</time>
      </trkpt>
      <trkpt lat="49.30004" lon="-0.08365">
        <ele>5</ele>
        <time>2018-04-16T13:23:56Z</time>
      </trkpt>
      <trkpt lat="49.29996" lon="-0.08372">
        <ele>7</ele>
        <time>2018-04-16T13:24:03Z</time>
      </trkpt>
      <trkpt lat="49.29989" lon="-0.08378">
        <ele>7</ele>
        <time>2018-04-16T13:24:10Z</time>
      </trkpt>
      <trkpt lat="49.29985" lon="-0.08383">
        <ele>7</ele>
        <time>2018-04-16T13:24:17Z</time>
      </trkpt>
      <trkpt lat="49.29979" lon="-0.08386">
        <ele>7</ele>
        <time>2018-04-16T13:24:24Z</time>
      </trkpt>
      <trkpt lat="49.29972" lon="-0.08393">
        <ele>7</ele>
        <time>2018-04-16T13:24:30Z</time>
      </trkpt>
      <trkpt lat="49.29968" lon="-0.084">
        <ele>7</ele>
        <time>2018-04-16T13:24:37Z</time>
      </trkpt>
      <trkpt lat="49.29963" lon="-0.0841">
        <ele>7</ele>
        <time>2018-04-16T13:24:44Z</time>
      </trkpt>
      <trkpt lat="49.29956" lon="-0.08416">
        <ele>8</ele>
        <time>2018-04-16T13:24:49Z</time>
      </trkpt>
      <trkpt lat="49.29948" lon="-0.08421">
        <ele>8</ele>
        <time>2018-04-16T13:24:55Z</time>
      </trkpt>
      <trkpt lat="49.29943" lon="-0.08425">
        <ele>8</ele>
        <time>2018-04-16T13:25:02Z</time>
      </trkpt>
      <trkpt lat="49.29935" lon="-0.08429">
        <ele>9</ele>
        <time>2018-04-16T13:25:09Z</time>
      </trkpt>
      <trkpt lat="49.29928" lon="-0.08432">
        <ele>9</ele>
        <time>2018-04-16T13:25:15Z</time>
      </trkpt>
      <trkpt lat="49.29922" lon="-0.0844">
        <ele>9</ele>
        <time>2018-04-16T13:25:20Z</time>
      </trkpt>
      <trkpt lat="49.29916" lon="-0.08446">
        <ele>12</ele>
        <time>2018-04-16T13:25:25Z</time>
      </trkpt>
      <trkpt lat="49.29914" lon="-0.08459">
        <ele>12</ele>
        <time>2018-04-16T13:25:30Z</time>
      </trkpt>
      <trkpt lat="49.29909" lon="-0.08469">
        <ele>12</ele>
        <time>2018-04-16T13:25:36Z</time>
      </trkpt>
      <trkpt lat="49.29903" lon="-0.08477">
        <ele>12</ele>
        <time>2018-04-16T13:25:43Z</time>
      </trkpt>
      <trkpt lat="49.29896" lon="-0.08485">
        <ele>12</ele>
        <time>2018-04-16T13:25:49Z</time>
      </trkpt>
      <trkpt lat="49.2989" lon="-0.08491">
        <ele>12</ele>
        <time>2018-04-16T13:25:55Z</time>
      </trkpt>
      <trkpt lat="49.29883" lon="-0.08499">
        <ele>12</ele>
        <time>2018-04-16T13:26:01Z</time>
      </trkpt>
      <trkpt lat="49.29878" lon="-0.08504">
        <ele>11</ele>
        <time>2018-04-16T13:26:08Z</time>
      </trkpt>
      <trkpt lat="49.29873" lon="-0.08511">
        <ele>11</ele>
        <time>2018-04-16T13:26:14Z</time>
      </trkpt>
      <trkpt lat="49.29866" lon="-0.08515">
        <ele>11</ele>
        <time>2018-04-16T13:26:20Z</time>
      </trkpt>
      <trkpt lat="49.2986" lon="-0.08522">
        <ele>11</ele>
        <time>2018-04-16T13:26:26Z</time>
      </trkpt>
      <trkpt lat="49.29853" lon="-0.08529">
        <ele>11</ele>
        <time>2018-04-16T13:26:32Z</time>
      </trkpt>
      <trkpt lat="49.29847" lon="-0.08536">
        <ele>11</ele>
        <time>2018-04-16T13:26:38Z</time>
      </trkpt>
      <trkpt lat="49.29841" lon="-0.08542">
        <ele>11</ele>
        <time>2018-04-16T13:26:43Z</time>
      </trkpt>
      <trkpt lat="49.29835" lon="-0.0855">
        <ele>11</ele>
        <time>2018-04-16T13:26:48Z</time>
      </trkpt>
      <trkpt lat="49.29828" lon="-0.08556">
        <ele>18</ele>
        <time>2018-04-16T13:26:55Z</time>
      </trkpt>
      <trkpt lat="49.29821" lon="-0.08563">
        <ele>18</ele>
        <time>2018-04-16T13:27:01Z</time>
      </trkpt>
      <trkpt lat="49.29814" lon="-0.08568">
        <ele>18</ele>
        <time>2018-04-16T13:27:08Z</time>
      </trkpt>
      <trkpt lat="49.29807" lon="-0.08573">
        <ele>18</ele>
        <time>2018-04-16T13:27:15Z</time>
      </trkpt>
      <trkpt lat="49.29801" lon="-0.08578">
        <ele>19</ele>
        <time>2018-04-16T13:27:22Z</time>
      </trkpt>
      <trkpt lat="49.29795" lon="-0.08584">
        <ele>18</ele>
        <time>2018-04-16T13:27:28Z</time>
      </trkpt>
      <trkpt lat="49.2979" lon="-0.08591">
        <ele>18</ele>
        <time>2018-04-16T13:27:35Z</time>
      </trkpt>
      <trkpt lat="49.29784" lon="-0.08598">
        <ele>18</ele>
        <time>2018-04-16T13:27:41Z</time>
      </trkpt>
      <trkpt lat="49.29776" lon="-0.08604">
        <ele>18</ele>
        <time>2018-04-16T13:27:48Z</time>
      </trkpt>
      <trkpt lat="49.29769" lon="-0.08609">
        <ele>18</ele>
        <time>2018-04-16T13:27:54Z</time>
      </trkpt>
      <trkpt lat="49.29762" lon="-0.08617">
        <ele>18</ele>
        <time>2018-04-16T13:28:01Z</time>
      </trkpt>
      <trkpt lat="49.29758" lon="-0.08619">
        <ele>18</ele>
        <time>2018-04-16T13:28:08Z</time>
      </trkpt>
      <trkpt lat="49.29751" lon="-0.08626">
        <ele>18</ele>
        <time>2018-04-16T13:28:14Z</time>
      </trkpt>
      <trkpt lat="49.29745" lon="-0.08633">
        <ele>22</ele>
        <time>2018-04-16T13:28:20Z</time>
      </trkpt>
      <trkpt lat="49.29738" lon="-0.08638">
        <ele>22</ele>
        <time>2018-04-16T13:28:25Z</time>
      </trkpt>
      <trkpt lat="49.29731" lon="-0.0864">
        <ele>23</ele>
        <time>2018-04-16T13:28:31Z</time>
      </trkpt>
      <trkpt lat="49.29723" lon="-0.08645">
        <ele>22</ele>
        <time>2018-04-16T13:28:37Z</time>
      </trkpt>
      <trkpt lat="49.29716" lon="-0.08647">
        <ele>22</ele>
        <time>2018-04-16T13:28:42Z</time>
      </trkpt>
      <trkpt lat="49.2971" lon="-0.08655">
        <ele>22</ele>
        <time>2018-04-16T13:28:48Z</time>
      </trkpt>
      <trkpt lat="49.29705" lon="-0.08663">
        <ele>21</ele>
        <time>2018-04-16T13:28:55Z</time>
      </trkpt>
      <trkpt lat="49.29698" lon="-0.08668">
        <ele>16</ele>
        <time>2018-04-16T13:29:01Z</time>
      </trkpt>
      <trkpt lat="49.29691" lon="-0.08672">
        <ele>16</ele>
        <time>2018-04-16T13:29:07Z</time>
      </trkpt>
      <trkpt lat="49.29683" lon="-0.08675">
        <ele>16</ele>
        <time>2018-04-16T13:29:13Z</time>
      </trkpt>
      <trkpt lat="49.29676" lon="-0.08677">
        <ele>16</ele>
        <time>2018-04-16T13:29:18Z</time>
      </trkpt>
      <trkpt lat="49.29668" lon="-0.08681">
        <ele>16</ele>
        <time>2018-04-16T13:29:24Z</time>
      </trkpt>
      <trkpt lat="49.29661" lon="-0.08687">
        <ele>18</ele>
        <time>2018-04-16T13:29:29Z</time>
      </trkpt>
      <trkpt lat="49.29654" lon="-0.08694">
        <ele>18</ele>
        <time>2018-04-16T13:29:36Z</time>
      </trkpt>
      <trkpt lat="49.29647" lon="-0.08701">
        <ele>19</ele>
        <time>2018-04-16T13:29:42Z</time>
      </trkpt>
      <trkpt lat="49.29641" lon="-0.08708">
        <ele>19</ele>
        <time>2018-04-16T13:29:48Z</time>
      </trkpt>
      <trkpt lat="49.29636" lon="-0.08716">
        <ele>18</ele>
        <time>2018-04-16T13:29:53Z</time>
      </trkpt>
      <trkpt lat="49.29632" lon="-0.08723">
        <ele>18</ele>
        <time>2018-04-16T13:30:00Z</time>
      </trkpt>
      <trkpt lat="49.29625" lon="-0.0873">
        <ele>17</ele>
        <time>2018-04-16T13:30:06Z</time>
      </trkpt>
      <trkpt lat="49.29619" lon="-0.08737">
        <ele>16</ele>
        <time>2018-04-16T13:30:12Z</time>
      </trkpt>
      <trkpt lat="49.29621" lon="-0.08741">
        <ele>16</ele>
        <time>2018-04-16T13:30:19Z</time>
      </trkpt>
      <trkpt lat="49.29613" lon="-0.08745">
        <ele>14</ele>
        <time>2018-04-16T13:30:25Z</time>
      </trkpt>
      <trkpt lat="49.29606" lon="-0.08751">
        <ele>6</ele>
        <time>2018-04-16T13:30:31Z</time>
      </trkpt>
      <trkpt lat="49.29598" lon="-0.08756">
        <ele>6</ele>
        <time>2018-04-16T13:30:38Z</time>
      </trkpt>
      <trkpt lat="49.29596" lon="-0.08762">
        <ele>6</ele>
        <time>2018-04-16T13:30:45Z</time>
      </trkpt>
      <trkpt lat="49.29598" lon="-0.08763">
        <ele>6</ele>
        <time>2018-04-16T13:30:52Z</time>
      </trkpt>
      <trkpt lat="49.29591" lon="-0.0877">
        <ele>6</ele>
        <time>2018-04-16T13:30:59Z</time>
      </trkpt>
      <trkpt lat="49.29585" lon="-0.08777">
        <ele>5</ele>
        <time>2018-04-16T13:31:06Z</time>
      </trkpt>
      <trkpt lat="49.29578" lon="-0.08781">
        <ele>13</ele>
        <time>2018-04-16T13:31:13Z</time>
      </trkpt>
      <trkpt lat="49.2957" lon="-0.08786">
        <ele>13</ele>
        <time>2018-04-16T13:31:19Z</time>
      </trkpt>
      <trkpt lat="49.29564" lon="-0.08792">
        <ele>14</ele>
        <time>2018-04-16T13:31:24Z</time>
      </trkpt>
      <trkpt lat="49.29556" lon="-0.08799">
        <ele>14</ele>
        <time>2018-04-16T13:31:30Z</time>
      </trkpt>
      <trkpt lat="49.29549" lon="-0.08807">
        <ele>15</ele>
        <time>2018-04-16T13:31:36Z</time>
      </trkpt>
      <trkpt lat="49.29542" lon="-0.08816">
        <ele>15</ele>
        <time>2018-04-16T13:31:42Z</time>
      </trkpt>
      <trkpt lat="49.29538" lon="-0.08824">
        <ele>16</ele>
        <time>2018-04-16T13:31:47Z</time>
      </trkpt>
      <trkpt lat="49.29533" lon="-0.08834">
        <ele>13</ele>
        <time>2018-04-16T13:31:53Z</time>
      </trkpt>
      <trkpt lat="49.29528" lon="-0.08841">
        <ele>13</ele>
        <time>2018-04-16T13:31:59Z</time>
      </trkpt>
      <trkpt lat="49.29524" lon="-0.08852">
        <ele>13</ele>
        <time>2018-04-16T13:32:06Z</time>
      </trkpt>
      <trkpt lat="49.2952" lon="-0.08862">
        <ele>13</ele>
        <time>2018-04-16T13:32:13Z</time>
      </trkpt>
      <trkpt lat="49.29514" lon="-0.0887">
        <ele>13</ele>
        <time>2018-04-16T13:32:18Z</time>
      </trkpt>
      <trkpt lat="49.2951" lon="-0.08877">
        <ele>13</ele>
        <time>2018-04-16T13:32:25Z</time>
      </trkpt>
      <trkpt lat="49.29506" lon="-0.08888">
        <ele>12</ele>
        <time>2018-04-16T13:32:32Z</time>
      </trkpt>
      <trkpt lat="49.29501" lon="-0.08897">
        <ele>12</ele>
        <time>2018-04-16T13:32:38Z</time>
      </trkpt>
      <trkpt lat="49.29497" lon="-0.08908">
        <ele>17</ele>
        <time>2018-04-16T13:32:45Z</time>
      </trkpt>
      <trkpt lat="49.29495" lon="-0.08917">
        <ele>14</ele>
        <time>2018-04-16T13:32:52Z</time>
      </trkpt>
      <trkpt lat="49.29492" lon="-0.08927">
        <ele>14</ele>
        <time>2018-04-16T13:32:58Z</time>
      </trkpt>
      <trkpt lat="49.29489" lon="-0.08938">
        <ele>15</ele>
        <time>2018-04-16T13:33:04Z</time>
      </trkpt>
      <trkpt lat="49.29486" lon="-0.08948">
        <ele>15</ele>
        <time>2018-04-16T13:33:11Z</time>
      </trkpt>
      <trkpt lat="49.29482" lon="-0.08956">
        <ele>15</ele>
        <time>2018-04-16T13:33:18Z</time>
      </trkpt>
      <trkpt lat="49.2948" lon="-0.08966">
        <ele>15</ele>
        <time>2018-04-16T13:33:24Z</time>
      </trkpt>
      <trkpt lat="49.29477" lon="-0.08979">
        <ele>14</ele>
        <time>2018-04-16T13:33:31Z</time>
      </trkpt>
      <trkpt lat="49.29473" lon="-0.08984">
        <ele>14</ele>
        <time>2018-04-16T13:33:38Z</time>
      </trkpt>
      <trkpt lat="49.2947" lon="-0.08995">
        <ele>14</ele>
        <time>2018-04-16T13:33:45Z</time>
      </trkpt>
      <trkpt lat="49.29466" lon="-0.09003">
        <ele>9</ele>
        <time>2018-04-16T13:33:52Z</time>
      </trkpt>
      <trkpt lat="49.29464" lon="-0.09014">
        <ele>9</ele>
        <time>2018-04-16T13:33:57Z</time>
      </trkpt>
      <trkpt lat="49.29461" lon="-0.09026">
        <ele>9</ele>
        <time>2018-04-16T13:34:02Z</time>
      </trkpt>
      <trkpt lat="49.29456" lon="-0.09035">
        <ele>9</ele>
        <time>2018-04-16T13:34:07Z</time>
      </trkpt>
      <trkpt lat="49.29452" lon="-0.09046">
        <ele>8</ele>
        <time>2018-04-16T13:34:13Z</time>
      </trkpt>
      <trkpt lat="49.29453" lon="-0.09058">
        <ele>8</ele>
        <time>2018-04-16T13:34:20Z</time>
      </trkpt>
      <trkpt lat="49.29454" lon="-0.09063">
        <ele>7</ele>
        <time>2018-04-16T13:34:27Z</time>
      </trkpt>
      <trkpt lat="49.29453" lon="-0.09066">
        <ele>7</ele>
        <time>2018-04-16T13:34:33Z</time>
      </trkpt>
      <trkpt lat="49.29453" lon="-0.09067">
        <ele>7</ele>
        <time>2018-04-16T13:34:42Z</time>
      </trkpt>
      <trkpt lat="49.29453" lon="-0.09067">
        <ele>7</ele>
        <time>2018-04-16T13:34:43Z</time>
      </trkpt>
      <trkpt lat="49.29453" lon="-0.09067">
        <ele>7</ele>
        <time>2018-04-16T13:35:03Z</time>
      </trkpt>
      <trkpt lat="49.29457" lon="-0.09068">
        <ele>7</ele>
        <time>2018-04-16T13:35:10Z</time>
      </trkpt>
      <trkpt lat="49.29463" lon="-0.09066">
        <ele>7</ele>
        <time>2018-04-16T13:35:17Z</time>
      </trkpt>
      <trkpt lat="49.29466" lon="-0.09074">
        <ele>7</ele>
        <time>2018-04-16T13:35:24Z</time>
      </trkpt>
      <trkpt lat="49.29466" lon="-0.09084">
        <ele>4</ele>
        <time>2018-04-16T13:35:31Z</time>
      </trkpt>
      <trkpt lat="49.29466" lon="-0.09098">
        <ele>4</ele>
        <time>2018-04-16T13:35:38Z</time>
      </trkpt>
      <trkpt lat="49.29464" lon="-0.09109">
        <ele>4</ele>
        <time>2018-04-16T13:35:45Z</time>
      </trkpt>
      <trkpt lat="49.29461" lon="-0.09119">
        <ele>4</ele>
        <time>2018-04-16T13:35:51Z</time>
      </trkpt>
      <trkpt lat="49.29458" lon="-0.09131">
        <ele>4</ele>
        <time>2018-04-16T13:35:57Z</time>
      </trkpt>
      <trkpt lat="49.29454" lon="-0.09143">
        <ele>4</ele>
        <time>2018-04-16T13:36:04Z</time>
      </trkpt>
      <trkpt lat="49.29451" lon="-0.09153">
        <ele>4</ele>
        <time>2018-04-16T13:36:09Z</time>
      </trkpt>
      <trkpt lat="49.29449" lon="-0.09164">
        <ele>3</ele>
        <time>2018-04-16T13:36:15Z</time>
      </trkpt>
      <trkpt lat="49.29446" lon="-0.09174">
        <ele>3</ele>
        <time>2018-04-16T13:36:22Z</time>
      </trkpt>
      <trkpt lat="49.29443" lon="-0.09185">
        <ele>3</ele>
        <time>2018-04-16T13:36:27Z</time>
      </trkpt>
      <trkpt lat="49.29439" lon="-0.09195">
        <ele>3</ele>
        <time>2018-04-16T13:36:34Z</time>
      </trkpt>
      <trkpt lat="49.29435" lon="-0.09207">
        <ele>3</ele>
        <time>2018-04-16T13:36:39Z</time>
      </trkpt>
      <trkpt lat="49.29432" lon="-0.09217">
        <ele>3</ele>
        <time>2018-04-16T13:36:45Z</time>
      </trkpt>
      <trkpt lat="49.29428" lon="-0.09228">
        <ele>4</ele>
        <time>2018-04-16T13:36:52Z</time>
      </trkpt>
      <trkpt lat="49.29424" lon="-0.09237">
        <ele>4</ele>
        <time>2018-04-16T13:36:57Z</time>
      </trkpt>
      <trkpt lat="49.29423" lon="-0.09249">
        <ele>4</ele>
        <time>2018-04-16T13:37:04Z</time>
      </trkpt>
      <trkpt lat="49.29423" lon="-0.0926">
        <ele>4</ele>
        <time>2018-04-16T13:37:10Z</time>
      </trkpt>
      <trkpt lat="49.29422" lon="-0.09271">
        <ele>4</ele>
        <time>2018-04-16T13:37:16Z</time>
      </trkpt>
      <trkpt lat="49.29422" lon="-0.09283">
        <ele>4</ele>
        <time>2018-04-16T13:37:22Z</time>
      </trkpt>
      <trkpt lat="49.29418" lon="-0.09292">
        <ele>4</ele>
        <time>2018-04-16T13:37:28Z</time>
      </trkpt>
      <trkpt lat="49.29416" lon="-0.09305">
        <ele>3</ele>
        <time>2018-04-16T13:37:35Z</time>
      </trkpt>
      <trkpt lat="49.2942" lon="-0.09313">
        <ele>3</ele>
        <time>2018-04-16T13:37:42Z</time>
      </trkpt>
      <trkpt lat="49.29424" lon="-0.09325">
        <ele>3</ele>
        <time>2018-04-16T13:37:48Z</time>
      </trkpt>
      <trkpt lat="49.29428" lon="-0.09334">
        <ele>3</ele>
        <time>2018-04-16T13:37:54Z</time>
      </trkpt>
      <trkpt lat="49.29435" lon="-0.09338">
        <ele>3</ele>
        <time>2018-04-16T13:38:01Z</time>
      </trkpt>
      <trkpt lat="49.29443" lon="-0.09339">
        <ele>3</ele>
        <time>2018-04-16T13:38:07Z</time>
      </trkpt>
      <trkpt lat="49.29451" lon="-0.09339">
        <ele>3</ele>
        <time>2018-04-16T13:38:12Z</time>
      </trkpt>
      <trkpt lat="49.29458" lon="-0.09339">
        <ele>3</ele>
        <time>2018-04-16T13:38:19Z</time>
      </trkpt>
      <trkpt lat="49.29462" lon="-0.09346">
        <ele>3</ele>
        <time>2018-04-16T13:38:26Z</time>
      </trkpt>
      <trkpt lat="49.29465" lon="-0.0935">
        <ele>3</ele>
        <time>2018-04-16T13:38:33Z</time>
      </trkpt>
      <trkpt lat="49.29472" lon="-0.09354">
        <ele>3</ele>
        <time>2018-04-16T13:38:40Z</time>
      </trkpt>
      <trkpt lat="49.29477" lon="-0.09357">
        <ele>3</ele>
        <time>2018-04-16T13:38:47Z</time>
      </trkpt>
      <trkpt lat="49.29484" lon="-0.09361">
        <ele>3</ele>
        <time>2018-04-16T13:38:53Z</time>
      </trkpt>
      <trkpt lat="49.29491" lon="-0.09367">
        <ele>3</ele>
        <time>2018-04-16T13:38:58Z</time>
      </trkpt>
      <trkpt lat="49.29496" lon="-0.09375">
        <ele>3</ele>
        <time>2018-04-16T13:39:04Z</time>
      </trkpt>
      <trkpt lat="49.29501" lon="-0.09382">
        <ele>55.9</ele>
        <time>2018-04-16T13:39:11Z</time>
      </trkpt>
      <trkpt lat="49.29499" lon="-0.09386">
        <ele>2</ele>
        <time>2018-04-16T13:39:18Z</time>
      </trkpt>
      <trkpt lat="49.29499" lon="-0.09386">
        <ele>2</ele>
        <time>2018-04-16T13:39:20Z</time>
      </trkpt>
      <trkpt lat="49.29501" lon="-0.09395">
        <ele>49.4</ele>
        <time>2018-04-16T13:39:49Z</time>
      </trkpt>
      <trkpt lat="49.29503" lon="-0.09402">
        <ele>49.5</ele>
        <time>2018-04-16T13:39:56Z</time>
      </trkpt>
      <trkpt lat="49.29502" lon="-0.09409">
        <ele>48.6</ele>
        <time>2018-04-16T13:40:03Z</time>
      </trkpt>
      <trkpt lat="49.29504" lon="-0.09416">
        <ele>46.6</ele>
        <time>2018-04-16T13:40:10Z</time>
      </trkpt>
      <trkpt lat="49.29506" lon="-0.09417">
        <ele>2</ele>
        <time>2018-04-16T13:40:17Z</time>
      </trkpt>
      <trkpt lat="49.29504" lon="-0.09421">
        <ele>2</ele>
        <time>2018-04-16T13:40:24Z</time>
      </trkpt>
      <trkpt lat="49.29507" lon="-0.09429">
        <ele>2</ele>
        <time>2018-04-16T13:40:32Z</time>
      </trkpt>
      <trkpt lat="49.29506" lon="-0.09439">
        <ele>2</ele>
        <time>2018-04-16T13:40:38Z</time>
      </trkpt>
      <trkpt lat="49.29504" lon="-0.0945">
        <ele>2</ele>
        <time>2018-04-16T13:40:45Z</time>
      </trkpt>
      <trkpt lat="49.29508" lon="-0.09461">
        <ele>2</ele>
        <time>2018-04-16T13:40:50Z</time>
      </trkpt>
      <trkpt lat="49.29509" lon="-0.09471">
        <ele>2</ele>
        <time>2018-04-16T13:40:55Z</time>
      </trkpt>
      <trkpt lat="49.29511" lon="-0.09485">
        <ele>2</ele>
        <time>2018-04-16T13:41:00Z</time>
      </trkpt>
      <trkpt lat="49.29514" lon="-0.09495">
        <ele>2</ele>
        <time>2018-04-16T13:41:05Z</time>
      </trkpt>
      <trkpt lat="49.29517" lon="-0.09507">
        <ele>2</ele>
        <time>2018-04-16T13:41:11Z</time>
      </trkpt>
      <trkpt lat="49.2952" lon="-0.0952">
        <ele>2</ele>
        <time>2018-04-16T13:41:17Z</time>
      </trkpt>
      <trkpt lat="49.29524" lon="-0.09531">
        <ele>2</ele>
        <time>2018-04-16T13:41:23Z</time>
      </trkpt>
      <trkpt lat="49.29526" lon="-0.0954">
        <ele>2</ele>
        <time>2018-04-16T13:41:29Z</time>
      </trkpt>
      <trkpt lat="49.29526" lon="-0.09554">
        <ele>3</ele>
        <time>2018-04-16T13:41:36Z</time>
      </trkpt>
      <trkpt lat="49.29527" lon="-0.09565">
        <ele>3</ele>
        <time>2018-04-16T13:41:43Z</time>
      </trkpt>
      <trkpt lat="49.29529" lon="-0.09575">
        <ele>3</ele>
        <time>2018-04-16T13:41:48Z</time>
      </trkpt>
      <trkpt lat="49.29531" lon="-0.09589">
        <ele>3</ele>
        <time>2018-04-16T13:41:54Z</time>
      </trkpt>
      <trkpt lat="49.29533" lon="-0.096">
        <ele>3</ele>
        <time>2018-04-16T13:42:01Z</time>
      </trkpt>
      <trkpt lat="49.29534" lon="-0.0961">
        <ele>2</ele>
        <time>2018-04-16T13:42:07Z</time>
      </trkpt>
      <trkpt lat="49.29537" lon="-0.09624">
        <ele>2</ele>
        <time>2018-04-16T13:42:14Z</time>
      </trkpt>
      <trkpt lat="49.29538" lon="-0.09636">
        <ele>2</ele>
        <time>2018-04-16T13:42:20Z</time>
      </trkpt>
      <trkpt lat="49.29541" lon="-0.09646">
        <ele>2</ele>
        <time>2018-04-16T13:42:26Z</time>
      </trkpt>
      <trkpt lat="49.29545" lon="-0.09658">
        <ele>2</ele>
        <time>2018-04-16T13:42:33Z</time>
      </trkpt>
      <trkpt lat="49.29548" lon="-0.09668">
        <ele>2</ele>
        <time>2018-04-16T13:42:40Z</time>
      </trkpt>
      <trkpt lat="49.29549" lon="-0.09679">
        <ele>2</ele>
        <time>2018-04-16T13:42:46Z</time>
      </trkpt>
      <trkpt lat="49.29551" lon="-0.09692">
        <ele>2</ele>
        <time>2018-04-16T13:42:52Z</time>
      </trkpt>
      <trkpt lat="49.29553" lon="-0.09704">
        <ele>2</ele>
        <time>2018-04-16T13:42:59Z</time>
      </trkpt>
      <trkpt lat="49.29555" lon="-0.09714">
        <ele>2</ele>
        <time>2018-04-16T13:43:05Z</time>
      </trkpt>
      <trkpt lat="49.29558" lon="-0.09728">
        <ele>2</ele>
        <time>2018-04-16T13:43:12Z</time>
      </trkpt>
      <trkpt lat="49.2956" lon="-0.0974">
        <ele>2</ele>
        <time>2018-04-16T13:43:18Z</time>
      </trkpt>
      <trkpt lat="49.29562" lon="-0.09749">
        <ele>2</ele>
        <time>2018-04-16T13:43:24Z</time>
      </trkpt>
      <trkpt lat="49.29564" lon="-0.09762">
        <ele>2</ele>
        <time>2018-04-16T13:43:30Z</time>
      </trkpt>
      <trkpt lat="49.29566" lon="-0.09772">
        <ele>2</ele>
        <time>2018-04-16T13:43:36Z</time>
      </trkpt>
      <trkpt lat="49.29567" lon="-0.09783">
        <ele>2</ele>
        <time>2018-04-16T13:43:43Z</time>
      </trkpt>
      <trkpt lat="49.29569" lon="-0.09797">
        <ele>3</ele>
        <time>2018-04-16T13:43:50Z</time>
      </trkpt>
      <trkpt lat="49.2957" lon="-0.09806">
        <ele>3</ele>
        <time>2018-04-16T13:43:56Z</time>
      </trkpt>
      <trkpt lat="49.29573" lon="-0.09818">
        <ele>3</ele>
        <time>2018-04-16T13:44:03Z</time>
      </trkpt>
      <trkpt lat="49.29576" lon="-0.0983">
        <ele>3</ele>
        <time>2018-04-16T13:44:10Z</time>
      </trkpt>
      <trkpt lat="49.29578" lon="-0.09839">
        <ele>3</ele>
        <time>2018-04-16T13:44:17Z</time>
      </trkpt>
      <trkpt lat="49.2958" lon="-0.09851">
        <ele>3</ele>
        <time>2018-04-16T13:44:24Z</time>
      </trkpt>
      <trkpt lat="49.29582" lon="-0.0986">
        <ele>3</ele>
        <time>2018-04-16T13:44:30Z</time>
      </trkpt>
      <trkpt lat="49.29583" lon="-0.09873">
        <ele>3</ele>
        <time>2018-04-16T13:44:37Z</time>
      </trkpt>
      <trkpt lat="49.2958" lon="-0.09883">
        <ele>3</ele>
        <time>2018-04-16T13:44:44Z</time>
      </trkpt>
      <trkpt lat="49.29576" lon="-0.09894">
        <ele>3</ele>
        <time>2018-04-16T13:44:50Z</time>
      </trkpt>
      <trkpt lat="49.29572" lon="-0.09902">
        <ele>3</ele>
        <time>2018-04-16T13:44:55Z</time>
      </trkpt>
      <trkpt lat="49.29568" lon="-0.09915">
        <ele>3</ele>
        <time>2018-04-16T13:45:01Z</time>
      </trkpt>
      <trkpt lat="49.29564" lon="-0.09924">
        <ele>4</ele>
        <time>2018-04-16T13:45:06Z</time>
      </trkpt>
      <trkpt lat="49.2956" lon="-0.09936">
        <ele>4</ele>
        <time>2018-04-16T13:45:13Z</time>
      </trkpt>
      <trkpt lat="49.29555" lon="-0.09946">
        <ele>4</ele>
        <time>2018-04-16T13:45:20Z</time>
      </trkpt>
      <trkpt lat="49.29551" lon="-0.09957">
        <ele>4</ele>
        <time>2018-04-16T13:45:26Z</time>
      </trkpt>
      <trkpt lat="49.29548" lon="-0.09968">
        <ele>4</ele>
        <time>2018-04-16T13:45:32Z</time>
      </trkpt>
      <trkpt lat="49.29544" lon="-0.09977">
        <ele>4</ele>
        <time>2018-04-16T13:45:39Z</time>
      </trkpt>
      <trkpt lat="49.2954" lon="-0.09989">
        <ele>4</ele>
        <time>2018-04-16T13:45:46Z</time>
      </trkpt>
      <trkpt lat="49.29536" lon="-0.09998">
        <ele>4</ele>
        <time>2018-04-16T13:45:52Z</time>
      </trkpt>
      <trkpt lat="49.29532" lon="-0.10008">
        <ele>4</ele>
        <time>2018-04-16T13:45:58Z</time>
      </trkpt>
      <trkpt lat="49.29528" lon="-0.10019">
        <ele>4</ele>
        <time>2018-04-16T13:46:05Z</time>
      </trkpt>
      <trkpt lat="49.29526" lon="-0.10031">
        <ele>4</ele>
        <time>2018-04-16T13:46:11Z</time>
      </trkpt>
      <trkpt lat="49.29523" lon="-0.1004">
        <ele>4</ele>
        <time>2018-04-16T13:46:18Z</time>
      </trkpt>
      <trkpt lat="49.29518" lon="-0.10053">
        <ele>4</ele>
        <time>2018-04-16T13:46:25Z</time>
      </trkpt>
      <trkpt lat="49.29514" lon="-0.10061">
        <ele>4</ele>
        <time>2018-04-16T13:46:31Z</time>
      </trkpt>
      <trkpt lat="49.29509" lon="-0.10072">
        <ele>4</ele>
        <time>2018-04-16T13:46:37Z</time>
      </trkpt>
      <trkpt lat="49.29504" lon="-0.10081">
        <ele>4</ele>
        <time>2018-04-16T13:46:42Z</time>
      </trkpt>
      <trkpt lat="49.29503" lon="-0.10093">
        <ele>4</ele>
        <time>2018-04-16T13:46:49Z</time>
      </trkpt>
      <trkpt lat="49.29502" lon="-0.10102">
        <ele>3</ele>
        <time>2018-04-16T13:46:55Z</time>
      </trkpt>
      <trkpt lat="49.29499" lon="-0.10116">
        <ele>5</ele>
        <time>2018-04-16T13:47:02Z</time>
      </trkpt>
      <trkpt lat="49.29496" lon="-0.10127">
        <ele>5</ele>
        <time>2018-04-16T13:47:08Z</time>
      </trkpt>
      <trkpt lat="49.29492" lon="-0.10137">
        <ele>5</ele>
        <time>2018-04-16T13:47:14Z</time>
      </trkpt>
      <trkpt lat="49.29487" lon="-0.10145">
        <ele>5</ele>
        <time>2018-04-16T13:47:20Z</time>
      </trkpt>
      <trkpt lat="49.29482" lon="-0.10156">
        <ele>5</ele>
        <time>2018-04-16T13:47:27Z</time>
      </trkpt>
      <trkpt lat="49.2948" lon="-0.10159">
        <ele>5</ele>
        <time>2018-04-16T13:47:34Z</time>
      </trkpt>
      <trkpt lat="49.29479" lon="-0.10165">
        <ele>5</ele>
        <time>2018-04-16T13:47:41Z</time>
      </trkpt>
      <trkpt lat="49.29478" lon="-0.10172">
        <ele>4</ele>
        <time>2018-04-16T13:47:48Z</time>
      </trkpt>
      <trkpt lat="49.29473" lon="-0.10179">
        <ele>4</ele>
        <time>2018-04-16T13:47:55Z</time>
      </trkpt>
      <trkpt lat="49.29466" lon="-0.10186">
        <ele>4</ele>
        <time>2018-04-16T13:48:01Z</time>
      </trkpt>
      <trkpt lat="49.29464" lon="-0.10197">
        <ele>4</ele>
        <time>2018-04-16T13:48:08Z</time>
      </trkpt>
      <trkpt lat="49.29462" lon="-0.10206">
        <ele>4</ele>
        <time>2018-04-16T13:48:15Z</time>
      </trkpt>
      <trkpt lat="49.29461" lon="-0.10216">
        <ele>4</ele>
        <time>2018-04-16T13:48:22Z</time>
      </trkpt>
      <trkpt lat="49.29456" lon="-0.10227">
        <ele>4</ele>
        <time>2018-04-16T13:48:29Z</time>
      </trkpt>
      <trkpt lat="49.29454" lon="-0.10227">
        <ele>4</ele>
        <time>2018-04-16T13:48:36Z</time>
      </trkpt>
      <trkpt lat="49.29454" lon="-0.10227">
        <ele>4</ele>
        <time>2018-04-16T13:48:38Z</time>
      </trkpt>
      <trkpt lat="49.29449" lon="-0.10238">
        <ele>4</ele>
        <time>2018-04-16T13:49:36Z</time>
      </trkpt>
      <trkpt lat="49.29444" lon="-0.10247">
        <ele>5</ele>
        <time>2018-04-16T13:49:42Z</time>
      </trkpt>
      <trkpt lat="49.29441" lon="-0.10259">
        <ele>4</ele>
        <time>2018-04-16T13:49:49Z</time>
      </trkpt>
      <trkpt lat="49.29435" lon="-0.10269">
        <ele>3</ele>
        <time>2018-04-16T13:49:56Z</time>
      </trkpt>
      <trkpt lat="49.2943" lon="-0.10276">
        <ele>3</ele>
        <time>2018-04-16T13:50:03Z</time>
      </trkpt>
      <trkpt lat="49.29426" lon="-0.10283">
        <ele>3</ele>
        <time>2018-04-16T13:50:10Z</time>
      </trkpt>
      <trkpt lat="49.29421" lon="-0.10294">
        <ele>3</ele>
        <time>2018-04-16T13:50:16Z</time>
      </trkpt>
      <trkpt lat="49.29417" lon="-0.10304">
        <ele>2</ele>
        <time>2018-04-16T13:50:22Z</time>
      </trkpt>
      <trkpt lat="49.29412" lon="-0.10311">
        <ele>2</ele>
        <time>2018-04-16T13:50:29Z</time>
      </trkpt>
      <trkpt lat="49.29406" lon="-0.10317">
        <ele>2</ele>
        <time>2018-04-16T13:50:36Z</time>
      </trkpt>
      <trkpt lat="49.29403" lon="-0.10325">
        <ele>2</ele>
        <time>2018-04-16T13:50:43Z</time>
      </trkpt>
      <trkpt lat="49.29396" lon="-0.10334">
        <ele>1</ele>
        <time>2018-04-16T13:50:49Z</time>
      </trkpt>
      <trkpt lat="49.29389" lon="-0.10338">
        <ele>2</ele>
        <time>2018-04-16T13:50:56Z</time>
      </trkpt>
      <trkpt lat="49.29382" lon="-0.10341">
        <ele>2</ele>
        <time>2018-04-16T13:51:03Z</time>
      </trkpt>
      <trkpt lat="49.29375" lon="-0.10341">
        <ele>2</ele>
        <time>2018-04-16T13:51:10Z</time>
      </trkpt>
      <trkpt lat="49.29368" lon="-0.10344">
        <ele>2</ele>
        <time>2018-04-16T13:51:16Z</time>
      </trkpt>
      <trkpt lat="49.29361" lon="-0.10345">
        <ele>2</ele>
        <time>2018-04-16T13:51:22Z</time>
      </trkpt>
      <trkpt lat="49.29352" lon="-0.10345">
        <ele>2</ele>
        <time>2018-04-16T13:51:29Z</time>
      </trkpt>
      <trkpt lat="49.29344" lon="-0.10345">
        <ele>3</ele>
        <time>2018-04-16T13:51:35Z</time>
      </trkpt>
      <trkpt lat="49.29336" lon="-0.10345">
        <ele>3</ele>
        <time>2018-04-16T13:51:42Z</time>
      </trkpt>
      <trkpt lat="49.29329" lon="-0.10345">
        <ele>3</ele>
        <time>2018-04-16T13:51:49Z</time>
      </trkpt>
      <trkpt lat="49.29322" lon="-0.10349">
        <ele>3</ele>
        <time>2018-04-16T13:51:56Z</time>
      </trkpt>
      <trkpt lat="49.29314" lon="-0.10352">
        <ele>3</ele>
        <time>2018-04-16T13:52:03Z</time>
      </trkpt>
      <trkpt lat="49.29307" lon="-0.10352">
        <ele>3</ele>
        <time>2018-04-16T13:52:10Z</time>
      </trkpt>
      <trkpt lat="49.29299" lon="-0.10352">
        <ele>3</ele>
        <time>2018-04-16T13:52:16Z</time>
      </trkpt>
      <trkpt lat="49.29291" lon="-0.10353">
        <ele>4</ele>
        <time>2018-04-16T13:52:22Z</time>
      </trkpt>
      <trkpt lat="49.29283" lon="-0.10356">
        <ele>4</ele>
        <time>2018-04-16T13:52:29Z</time>
      </trkpt>
      <trkpt lat="49.29276" lon="-0.10359">
        <ele>4</ele>
        <time>2018-04-16T13:52:35Z</time>
      </trkpt>
      <trkpt lat="49.29269" lon="-0.10356">
        <ele>4</ele>
        <time>2018-04-16T13:52:42Z</time>
      </trkpt>
      <trkpt lat="49.29261" lon="-0.10356">
        <ele>4</ele>
        <time>2018-04-16T13:52:49Z</time>
      </trkpt>
      <trkpt lat="49.29254" lon="-0.10359">
        <ele>4</ele>
        <time>2018-04-16T13:52:56Z</time>
      </trkpt>
      <trkpt lat="49.29247" lon="-0.10359">
        <ele>3</ele>
        <time>2018-04-16T13:53:03Z</time>
      </trkpt>
      <trkpt lat="49.29238" lon="-0.10359">
        <ele>3</ele>
        <time>2018-04-16T13:53:10Z</time>
      </trkpt>
      <trkpt lat="49.29231" lon="-0.1036">
        <ele>3</ele>
        <time>2018-04-16T13:53:16Z</time>
      </trkpt>
      <trkpt lat="49.29223" lon="-0.10363">
        <ele>3</ele>
        <time>2018-04-16T13:53:23Z</time>
      </trkpt>
      <trkpt lat="49.29215" lon="-0.10365">
        <ele>3</ele>
        <time>2018-04-16T13:53:30Z</time>
      </trkpt>
      <trkpt lat="49.29208" lon="-0.10363">
        <ele>3</ele>
        <time>2018-04-16T13:53:37Z</time>
      </trkpt>
      <trkpt lat="49.29204" lon="-0.10363">
        <ele>3</ele>
        <time>2018-04-16T13:53:44Z</time>
      </trkpt>
      <trkpt lat="49.29199" lon="-0.10363">
        <ele>3</ele>
        <time>2018-04-16T13:53:51Z</time>
      </trkpt>
      <trkpt lat="49.29192" lon="-0.10366">
        <ele>3</ele>
        <time>2018-04-16T13:53:56Z</time>
      </trkpt>
      <trkpt lat="49.29184" lon="-0.10366">
        <ele>3</ele>
        <time>2018-04-16T13:54:03Z</time>
      </trkpt>
      <trkpt lat="49.29176" lon="-0.10366">
        <ele>3</ele>
        <time>2018-04-16T13:54:09Z</time>
      </trkpt>
      <trkpt lat="49.29171" lon="-0.1037">
        <ele>2</ele>
        <time>2018-04-16T13:54:16Z</time>
      </trkpt>
      <trkpt lat="49.29163" lon="-0.10372">
        <ele>2</ele>
        <time>2018-04-16T13:54:22Z</time>
      </trkpt>
      <trkpt lat="49.29155" lon="-0.10373">
        <ele>2</ele>
        <time>2018-04-16T13:54:29Z</time>
      </trkpt>
      <trkpt lat="49.29148" lon="-0.10373">
        <ele>2</ele>
        <time>2018-04-16T13:54:35Z</time>
      </trkpt>
      <trkpt lat="49.2914" lon="-0.10373">
        <ele>2</ele>
        <time>2018-04-16T13:54:41Z</time>
      </trkpt>
      <trkpt lat="49.29132" lon="-0.10377">
        <ele>2</ele>
        <time>2018-04-16T13:54:47Z</time>
      </trkpt>
      <trkpt lat="49.29124" lon="-0.1038">
        <ele>2</ele>
        <time>2018-04-16T13:54:53Z</time>
      </trkpt>
      <trkpt lat="49.29117" lon="-0.10385">
        <ele>2</ele>
        <time>2018-04-16T13:55:00Z</time>
      </trkpt>
      <trkpt lat="49.2911" lon="-0.10386">
        <ele>2</ele>
        <time>2018-04-16T13:55:07Z</time>
      </trkpt>
      <trkpt lat="49.29104" lon="-0.10386">
        <ele>2</ele>
        <time>2018-04-16T13:55:13Z</time>
      </trkpt>
      <trkpt lat="49.29096" lon="-0.10387">
        <ele>2</ele>
        <time>2018-04-16T13:55:19Z</time>
      </trkpt>
      <trkpt lat="49.29088" lon="-0.1039">
        <ele>2</ele>
        <time>2018-04-16T13:55:26Z</time>
      </trkpt>
      <trkpt lat="49.29083" lon="-0.10392">
        <ele>3</ele>
        <time>2018-04-16T13:55:33Z</time>
      </trkpt>
      <trkpt lat="49.29079" lon="-0.10397">
        <ele>2</ele>
        <time>2018-04-16T13:55:40Z</time>
      </trkpt>
      <trkpt lat="49.29072" lon="-0.10401">
        <ele>2</ele>
        <time>2018-04-16T13:55:47Z</time>
      </trkpt>
      <trkpt lat="49.29067" lon="-0.10402">
        <ele>2</ele>
        <time>2018-04-16T13:55:54Z</time>
      </trkpt>
      <trkpt lat="49.29059" lon="-0.10408">
        <ele>2</ele>
        <time>2018-04-16T13:56:00Z</time>
      </trkpt>
      <trkpt lat="49.29052" lon="-0.10412">
        <ele>2</ele>
        <time>2018-04-16T13:56:06Z</time>
      </trkpt>
      <trkpt lat="49.29046" lon="-0.10415">
        <ele>2</ele>
        <time>2018-04-16T13:56:13Z</time>
      </trkpt>
      <trkpt lat="49.29039" lon="-0.10419">
        <ele>2</ele>
        <time>2018-04-16T13:56:19Z</time>
      </trkpt>
      <trkpt lat="49.29032" lon="-0.10423">
        <ele>2</ele>
        <time>2018-04-16T13:56:25Z</time>
      </trkpt>
      <trkpt lat="49.29024" lon="-0.10426">
        <ele>2</ele>
        <time>2018-04-16T13:56:32Z</time>
      </trkpt>
      <trkpt lat="49.29017" lon="-0.10433">
        <ele>2</ele>
        <time>2018-04-16T13:56:38Z</time>
      </trkpt>
      <trkpt lat="49.29012" lon="-0.1044">
        <ele>2</ele>
        <time>2018-04-16T13:56:45Z</time>
      </trkpt>
      <trkpt lat="49.29008" lon="-0.10445">
        <ele>2</ele>
        <time>2018-04-16T13:56:52Z</time>
      </trkpt>
      <trkpt lat="49.29001" lon="-0.10452">
        <ele>2</ele>
        <time>2018-04-16T13:56:59Z</time>
      </trkpt>
      <trkpt lat="49.28998" lon="-0.10456">
        <ele>2</ele>
        <time>2018-04-16T13:57:06Z</time>
      </trkpt>
      <trkpt lat="49.28992" lon="-0.10463">
        <ele>1</ele>
        <time>2018-04-16T13:57:12Z</time>
      </trkpt>
      <trkpt lat="49.28986" lon="-0.1047">
        <ele>1</ele>
        <time>2018-04-16T13:57:18Z</time>
      </trkpt>
      <trkpt lat="49.28979" lon="-0.10477">
        <ele>1</ele>
        <time>2018-04-16T13:57:25Z</time>
      </trkpt>
      <trkpt lat="49.28973" lon="-0.10481">
        <ele>1</ele>
        <time>2018-04-16T13:57:32Z</time>
      </trkpt>
      <trkpt lat="49.28966" lon="-0.10488">
        <ele>1</ele>
        <time>2018-04-16T13:57:38Z</time>
      </trkpt>
      <trkpt lat="49.28958" lon="-0.10495">
        <ele>1</ele>
        <time>2018-04-16T13:57:45Z</time>
      </trkpt>
      <trkpt lat="49.28957" lon="-0.10501">
        <ele>1</ele>
        <time>2018-04-16T13:57:52Z</time>
      </trkpt>
      <trkpt lat="49.28951" lon="-0.10508">
        <ele>1</ele>
        <time>2018-04-16T13:57:58Z</time>
      </trkpt>
      <trkpt lat="49.28945" lon="-0.10515">
        <ele>1</ele>
        <time>2018-04-16T13:58:05Z</time>
      </trkpt>
      <trkpt lat="49.28939" lon="-0.10523">
        <ele>1</ele>
        <time>2018-04-16T13:58:11Z</time>
      </trkpt>
      <trkpt lat="49.28933" lon="-0.1053">
        <ele>1</ele>
        <time>2018-04-16T13:58:18Z</time>
      </trkpt>
      <trkpt lat="49.28927" lon="-0.10537">
        <ele>1</ele>
        <time>2018-04-16T13:58:24Z</time>
      </trkpt>
      <trkpt lat="49.28922" lon="-0.10541">
        <ele>1</ele>
        <time>2018-04-16T13:58:31Z</time>
      </trkpt>
      <trkpt lat="49.28916" lon="-0.10546">
        <ele>1</ele>
        <time>2018-04-16T13:58:38Z</time>
      </trkpt>
      <trkpt lat="49.28911" lon="-0.10556">
        <ele>1</ele>
        <time>2018-04-16T13:58:44Z</time>
      </trkpt>
      <trkpt lat="49.28905" lon="-0.1056">
        <ele>1</ele>
        <time>2018-04-16T13:58:51Z</time>
      </trkpt>
      <trkpt lat="49.28898" lon="-0.10567">
        <ele>1</ele>
        <time>2018-04-16T13:58:58Z</time>
      </trkpt>
      <trkpt lat="49.28893" lon="-0.10574">
        <ele>1</ele>
        <time>2018-04-16T13:59:04Z</time>
      </trkpt>
      <trkpt lat="49.28888" lon="-0.10581">
        <ele>1</ele>
        <time>2018-04-16T13:59:11Z</time>
      </trkpt>
      <trkpt lat="49.28881" lon="-0.10585">
        <ele>1</ele>
        <time>2018-04-16T13:59:17Z</time>
      </trkpt>
      <trkpt lat="49.28877" lon="-0.10592">
        <ele>1</ele>
        <time>2018-04-16T13:59:24Z</time>
      </trkpt>
      <trkpt lat="49.28873" lon="-0.10599">
        <ele>1</ele>
        <time>2018-04-16T13:59:31Z</time>
      </trkpt>
      <trkpt lat="49.28867" lon="-0.10606">
        <ele>1</ele>
        <time>2018-04-16T13:59:38Z</time>
      </trkpt>
      <trkpt lat="49.28862" lon="-0.10613">
        <ele>1</ele>
        <time>2018-04-16T13:59:45Z</time>
      </trkpt>
      <trkpt lat="49.28857" lon="-0.1062">
        <ele>1</ele>
        <time>2018-04-16T13:59:51Z</time>
      </trkpt>
      <trkpt lat="49.28851" lon="-0.10626">
        <ele>1</ele>
        <time>2018-04-16T13:59:58Z</time>
      </trkpt>
      <trkpt lat="49.28844" lon="-0.10632">
        <ele>1</ele>
        <time>2018-04-16T14:00:05Z</time>
      </trkpt>
      <trkpt lat="49.28839" lon="-0.10637">
        <ele>1</ele>
        <time>2018-04-16T14:00:12Z</time>
      </trkpt>
      <trkpt lat="49.28833" lon="-0.10644">
        <ele>1</ele>
        <time>2018-04-16T14:00:18Z</time>
      </trkpt>
      <trkpt lat="49.28827" lon="-0.10648">
        <ele>1</ele>
        <time>2018-04-16T14:00:25Z</time>
      </trkpt>
      <trkpt lat="49.28821" lon="-0.10653">
        <ele>1</ele>
        <time>2018-04-16T14:00:31Z</time>
      </trkpt>
      <trkpt lat="49.28813" lon="-0.10659">
        <ele>1</ele>
        <time>2018-04-16T14:00:37Z</time>
      </trkpt>
      <trkpt lat="49.28806" lon="-0.10664">
        <ele>2</ele>
        <time>2018-04-16T14:00:43Z</time>
      </trkpt>
      <trkpt lat="49.28799" lon="-0.10668">
        <ele>2</ele>
        <time>2018-04-16T14:00:49Z</time>
      </trkpt>
      <trkpt lat="49.28794" lon="-0.10678">
        <ele>2</ele>
        <time>2018-04-16T14:00:56Z</time>
      </trkpt>
      <trkpt lat="49.28788" lon="-0.10685">
        <ele>2</ele>
        <time>2018-04-16T14:01:02Z</time>
      </trkpt>
      <trkpt lat="49.28784" lon="-0.10692">
        <ele>2</ele>
        <time>2018-04-16T14:01:08Z</time>
      </trkpt>
      <trkpt lat="49.28781" lon="-0.10703">
        <ele>2</ele>
        <time>2018-04-16T14:01:15Z</time>
      </trkpt>
      <trkpt lat="49.28775" lon="-0.10713">
        <ele>2</ele>
        <time>2018-04-16T14:01:22Z</time>
      </trkpt>
      <trkpt lat="49.2877" lon="-0.10722">
        <ele>2</ele>
        <time>2018-04-16T14:01:28Z</time>
      </trkpt>
      <trkpt lat="49.28766" lon="-0.1073">
        <ele>2</ele>
        <time>2018-04-16T14:01:35Z</time>
      </trkpt>
      <trkpt lat="49.28761" lon="-0.10741">
        <ele>2</ele>
        <time>2018-04-16T14:01:41Z</time>
      </trkpt>
      <trkpt lat="49.28759" lon="-0.10754">
        <ele>2</ele>
        <time>2018-04-16T14:01:47Z</time>
      </trkpt>
      <trkpt lat="49.28753" lon="-0.10761">
        <ele>2</ele>
        <time>2018-04-16T14:01:54Z</time>
      </trkpt>
      <trkpt lat="49.28749" lon="-0.10771">
        <ele>2</ele>
        <time>2018-04-16T14:02:00Z</time>
      </trkpt>
      <trkpt lat="49.28746" lon="-0.10778">
        <ele>2</ele>
        <time>2018-04-16T14:02:07Z</time>
      </trkpt>
      <trkpt lat="49.28742" lon="-0.10789">
        <ele>2</ele>
        <time>2018-04-16T14:02:13Z</time>
      </trkpt>
      <trkpt lat="49.28739" lon="-0.10799">
        <ele>3</ele>
        <time>2018-04-16T14:02:20Z</time>
      </trkpt>
      <trkpt lat="49.28736" lon="-0.10806">
        <ele>3</ele>
        <time>2018-04-16T14:02:27Z</time>
      </trkpt>
      <trkpt lat="49.28733" lon="-0.10813">
        <ele>3</ele>
        <time>2018-04-16T14:02:34Z</time>
      </trkpt>
      <trkpt lat="49.2873" lon="-0.10824">
        <ele>3</ele>
        <time>2018-04-16T14:02:41Z</time>
      </trkpt>
      <trkpt lat="49.28727" lon="-0.10834">
        <ele>3</ele>
        <time>2018-04-16T14:02:48Z</time>
      </trkpt>
      <trkpt lat="49.28723" lon="-0.10841">
        <ele>3</ele>
        <time>2018-04-16T14:02:55Z</time>
      </trkpt>
      <trkpt lat="49.28719" lon="-0.10854">
        <ele>3</ele>
        <time>2018-04-16T14:03:02Z</time>
      </trkpt>
      <trkpt lat="49.28715" lon="-0.10863">
        <ele>3</ele>
        <time>2018-04-16T14:03:09Z</time>
      </trkpt>
      <trkpt lat="49.28711" lon="-0.10874">
        <ele>3</ele>
        <time>2018-04-16T14:03:16Z</time>
      </trkpt>
      <trkpt lat="49.28707" lon="-0.10884">
        <ele>3</ele>
        <time>2018-04-16T14:03:23Z</time>
      </trkpt>
      <trkpt lat="49.28701" lon="-0.10893">
        <ele>3</ele>
        <time>2018-04-16T14:03:30Z</time>
      </trkpt>
      <trkpt lat="49.28698" lon="-0.109">
        <ele>3</ele>
        <time>2018-04-16T14:03:37Z</time>
      </trkpt>
      <trkpt lat="49.28698" lon="-0.109">
        <ele>3</ele>
        <time>2018-04-16T14:03:42Z</time>
      </trkpt>
      <trkpt lat="49.28695" lon="-0.10907">
        <ele>3</ele>
        <time>2018-04-16T14:03:56Z</time>
      </trkpt>
      <trkpt lat="49.2869" lon="-0.10917">
        <ele>3</ele>
        <time>2018-04-16T14:04:03Z</time>
      </trkpt>
      <trkpt lat="49.28685" lon="-0.10925">
        <ele>4</ele>
        <time>2018-04-16T14:04:09Z</time>
      </trkpt>
      <trkpt lat="49.2868" lon="-0.10935">
        <ele>4</ele>
        <time>2018-04-16T14:04:15Z</time>
      </trkpt>
      <trkpt lat="49.28676" lon="-0.10945">
        <ele>4</ele>
        <time>2018-04-16T14:04:22Z</time>
      </trkpt>
      <trkpt lat="49.28673" lon="-0.1095">
        <ele>4</ele>
        <time>2018-04-16T14:04:29Z</time>
      </trkpt>
      <trkpt lat="49.28667" lon="-0.10959">
        <ele>4</ele>
        <time>2018-04-16T14:04:36Z</time>
      </trkpt>
      <trkpt lat="49.28665" lon="-0.1096">
        <ele>4</ele>
        <time>2018-04-16T14:04:43Z</time>
      </trkpt>
      <trkpt lat="49.28665" lon="-0.1096">
        <ele>4</ele>
        <time>2018-04-16T14:04:46Z</time>
      </trkpt>
      <trkpt lat="49.28665" lon="-0.10958">
        <ele>4</ele>
        <time>2018-04-16T14:04:55Z</time>
      </trkpt>
      <trkpt lat="49.28665" lon="-0.10958">
        <ele>4</ele>
        <time>2018-04-16T14:04:56Z</time>
      </trkpt>
      <trkpt lat="49.28663" lon="-0.10969">
        <ele>4</ele>
        <time>2018-04-16T14:05:39Z</time>
      </trkpt>
      <trkpt lat="49.2866" lon="-0.10979">
        <ele>4</ele>
        <time>2018-04-16T14:05:45Z</time>
      </trkpt>
      <trkpt lat="49.28655" lon="-0.10988">
        <ele>4</ele>
        <time>2018-04-16T14:05:52Z</time>
      </trkpt>
      <trkpt lat="49.2865" lon="-0.10999">
        <ele>4</ele>
        <time>2018-04-16T14:05:59Z</time>
      </trkpt>
      <trkpt lat="49.28645" lon="-0.11008">
        <ele>5</ele>
        <time>2018-04-16T14:06:06Z</time>
      </trkpt>
      <trkpt lat="49.2864" lon="-0.11017">
        <ele>5</ele>
        <time>2018-04-16T14:06:12Z</time>
      </trkpt>
      <trkpt lat="49.28635" lon="-0.11025">
        <ele>5</ele>
        <time>2018-04-16T14:06:19Z</time>
      </trkpt>
      <trkpt lat="49.28629" lon="-0.11034">
        <ele>5</ele>
        <time>2018-04-16T14:06:25Z</time>
      </trkpt>
      <trkpt lat="49.28624" lon="-0.11041">
        <ele>5</ele>
        <time>2018-04-16T14:06:32Z</time>
      </trkpt>
      <trkpt lat="49.28618" lon="-0.11048">
        <ele>6</ele>
        <time>2018-04-16T14:06:38Z</time>
      </trkpt>
      <trkpt lat="49.28613" lon="-0.11057">
        <ele>6</ele>
        <time>2018-04-16T14:06:44Z</time>
      </trkpt>
      <trkpt lat="49.28609" lon="-0.11066">
        <ele>6</ele>
        <time>2018-04-16T14:06:51Z</time>
      </trkpt>
      <trkpt lat="49.28604" lon="-0.11074">
        <ele>6</ele>
        <time>2018-04-16T14:06:57Z</time>
      </trkpt>
      <trkpt lat="49.28597" lon="-0.11078">
        <ele>6</ele>
        <time>2018-04-16T14:07:03Z</time>
      </trkpt>
      <trkpt lat="49.28597" lon="-0.11083">
        <ele>6</ele>
        <time>2018-04-16T14:07:10Z</time>
      </trkpt>
      <trkpt lat="49.28598" lon="-0.11081">
        <ele>6</ele>
        <time>2018-04-16T14:07:17Z</time>
      </trkpt>
      <trkpt lat="49.28598" lon="-0.11081">
        <ele>6</ele>
        <time>2018-04-16T14:07:20Z</time>
      </trkpt>
      <trkpt lat="49.28598" lon="-0.11081">
        <ele>6</ele>
        <time>2018-04-16T14:07:34Z</time>
      </trkpt>
      <trkpt lat="49.28598" lon="-0.11081">
        <ele>6</ele>
        <time>2018-04-16T14:07:39Z</time>
      </trkpt>
      <trkpt lat="49.28595" lon="-0.11082">
        <ele>6</ele>
        <time>2018-04-16T14:07:51Z</time>
      </trkpt>
      <trkpt lat="49.2859" lon="-0.11092">
        <ele>6</ele>
        <time>2018-04-16T14:07:58Z</time>
      </trkpt>
      <trkpt lat="49.28585" lon="-0.11101">
        <ele>6</ele>
        <time>2018-04-16T14:08:05Z</time>
      </trkpt>
      <trkpt lat="49.2858" lon="-0.11112">
        <ele>6</ele>
        <time>2018-04-16T14:08:12Z</time>
      </trkpt>
      <trkpt lat="49.28575" lon="-0.11121">
        <ele>6</ele>
        <time>2018-04-16T14:08:19Z</time>
      </trkpt>
      <trkpt lat="49.28577" lon="-0.11132">
        <ele>5</ele>
        <time>2018-04-16T14:08:26Z</time>
      </trkpt>
      <trkpt lat="49.28578" lon="-0.11136">
        <ele>5</ele>
        <time>2018-04-16T14:08:33Z</time>
      </trkpt>
      <trkpt lat="49.28578" lon="-0.11138">
        <ele>5</ele>
        <time>2018-04-16T14:08:40Z</time>
      </trkpt>
      <trkpt lat="49.2858" lon="-0.11147">
        <ele>5</ele>
        <time>2018-04-16T14:08:47Z</time>
      </trkpt>
      <trkpt lat="49.28584" lon="-0.11157">
        <ele>4</ele>
        <time>2018-04-16T14:08:52Z</time>
      </trkpt>
      <trkpt lat="49.28587" lon="-0.11168">
        <ele>4</ele>
        <time>2018-04-16T14:08:59Z</time>
      </trkpt>
      <trkpt lat="49.2859" lon="-0.1118">
        <ele>4</ele>
        <time>2018-04-16T14:09:05Z</time>
      </trkpt>
      <trkpt lat="49.28593" lon="-0.11189">
        <ele>4</ele>
        <time>2018-04-16T14:09:11Z</time>
      </trkpt>
      <trkpt lat="49.28597" lon="-0.11196">
        <ele>4</ele>
        <time>2018-04-16T14:09:18Z</time>
      </trkpt>
      <trkpt lat="49.286" lon="-0.11208">
        <ele>4</ele>
        <time>2018-04-16T14:09:24Z</time>
      </trkpt>
      <trkpt lat="49.28604" lon="-0.11217">
        <ele>4</ele>
        <time>2018-04-16T14:09:31Z</time>
      </trkpt>
      <trkpt lat="49.28611" lon="-0.11221">
        <ele>4</ele>
        <time>2018-04-16T14:09:38Z</time>
      </trkpt>
      <trkpt lat="49.28611" lon="-0.11222">
        <ele>4</ele>
        <time>2018-04-16T14:09:45Z</time>
      </trkpt>
      <trkpt lat="49.28613" lon="-0.11229">
        <ele>4</ele>
        <time>2018-04-16T14:09:52Z</time>
      </trkpt>
      <trkpt lat="49.28615" lon="-0.1124">
        <ele>4</ele>
        <time>2018-04-16T14:09:58Z</time>
      </trkpt>
      <trkpt lat="49.28611" lon="-0.1125">
        <ele>4</ele>
        <time>2018-04-16T14:10:05Z</time>
      </trkpt>
      <trkpt lat="49.28609" lon="-0.11258">
        <ele>5</ele>
        <time>2018-04-16T14:10:12Z</time>
      </trkpt>
      <trkpt lat="49.28615" lon="-0.1127">
        <ele>5</ele>
        <time>2018-04-16T14:10:19Z</time>
      </trkpt>
      <trkpt lat="49.28617" lon="-0.11277">
        <ele>5</ele>
        <time>2018-04-16T14:10:26Z</time>
      </trkpt>
      <trkpt lat="49.2862" lon="-0.11288">
        <ele>5</ele>
        <time>2018-04-16T14:10:32Z</time>
      </trkpt>
      <trkpt lat="49.28625" lon="-0.11299">
        <ele>5</ele>
        <time>2018-04-16T14:10:39Z</time>
      </trkpt>
      <trkpt lat="49.28626" lon="-0.1131">
        <ele>5</ele>
        <time>2018-04-16T14:10:45Z</time>
      </trkpt>
      <trkpt lat="49.28628" lon="-0.11319">
        <ele>5</ele>
        <time>2018-04-16T14:10:52Z</time>
      </trkpt>
      <trkpt lat="49.28631" lon="-0.11328">
        <ele>6</ele>
        <time>2018-04-16T14:10:58Z</time>
      </trkpt>
      <trkpt lat="49.28633" lon="-0.11341">
        <ele>6</ele>
        <time>2018-04-16T14:11:04Z</time>
      </trkpt>
      <trkpt lat="49.28635" lon="-0.11353">
        <ele>6</ele>
        <time>2018-04-16T14:11:10Z</time>
      </trkpt>
      <trkpt lat="49.28639" lon="-0.11362">
        <ele>6</ele>
        <time>2018-04-16T14:11:17Z</time>
      </trkpt>
      <trkpt lat="49.2864" lon="-0.11373">
        <ele>6</ele>
        <time>2018-04-16T14:11:24Z</time>
      </trkpt>
      <trkpt lat="49.28647" lon="-0.11383">
        <ele>6</ele>
        <time>2018-04-16T14:11:31Z</time>
      </trkpt>
      <trkpt lat="49.28652" lon="-0.1139">
        <ele>6</ele>
        <time>2018-04-16T14:11:37Z</time>
      </trkpt>
      <trkpt lat="49.28655" lon="-0.11397">
        <ele>6</ele>
        <time>2018-04-16T14:11:44Z</time>
      </trkpt>
      <trkpt lat="49.28654" lon="-0.11409">
        <ele>6</ele>
        <time>2018-04-16T14:11:49Z</time>
      </trkpt>
      <trkpt lat="49.28656" lon="-0.1142">
        <ele>6</ele>
        <time>2018-04-16T14:11:56Z</time>
      </trkpt>
      <trkpt lat="49.28659" lon="-0.11432">
        <ele>6</ele>
        <time>2018-04-16T14:12:02Z</time>
      </trkpt>
      <trkpt lat="49.28658" lon="-0.11436">
        <ele>6</ele>
        <time>2018-04-16T14:12:09Z</time>
      </trkpt>
      <trkpt lat="49.28658" lon="-0.11434">
        <ele>6</ele>
        <time>2018-04-16T14:12:12Z</time>
      </trkpt>
      <trkpt lat="49.28659" lon="-0.11441">
        <ele>6</ele>
        <time>2018-04-16T14:12:21Z</time>
      </trkpt>
      <trkpt lat="49.28661" lon="-0.11452">
        <ele>6</ele>
        <time>2018-04-16T14:12:28Z</time>
      </trkpt>
      <trkpt lat="49.28663" lon="-0.11464">
        <ele>6</ele>
        <time>2018-04-16T14:12:35Z</time>
      </trkpt>
      <trkpt lat="49.28667" lon="-0.11473">
        <ele>6</ele>
        <time>2018-04-16T14:12:41Z</time>
      </trkpt>
      <trkpt lat="49.2867" lon="-0.11486">
        <ele>7</ele>
        <time>2018-04-16T14:12:47Z</time>
      </trkpt>
      <trkpt lat="49.28673" lon="-0.11493">
        <ele>7</ele>
        <time>2018-04-16T14:12:54Z</time>
      </trkpt>
      <trkpt lat="49.28676" lon="-0.11503">
        <ele>7</ele>
        <time>2018-04-16T14:13:01Z</time>
      </trkpt>
      <trkpt lat="49.28678" lon="-0.11514">
        <ele>6</ele>
        <time>2018-04-16T14:13:08Z</time>
      </trkpt>
      <trkpt lat="49.28681" lon="-0.11525">
        <ele>6</ele>
        <time>2018-04-16T14:13:13Z</time>
      </trkpt>
      <trkpt lat="49.28682" lon="-0.11534">
        <ele>6</ele>
        <time>2018-04-16T14:13:20Z</time>
      </trkpt>
      <trkpt lat="49.28685" lon="-0.11543">
        <ele>6</ele>
        <time>2018-04-16T14:13:27Z</time>
      </trkpt>
      <trkpt lat="49.28687" lon="-0.11555">
        <ele>6</ele>
        <time>2018-04-16T14:13:34Z</time>
      </trkpt>
      <trkpt lat="49.2869" lon="-0.11566">
        <ele>6</ele>
        <time>2018-04-16T14:13:40Z</time>
      </trkpt>
      <trkpt lat="49.28692" lon="-0.11577">
        <ele>5</ele>
        <time>2018-04-16T14:13:45Z</time>
      </trkpt>
      <trkpt lat="49.2869" lon="-0.11589">
        <ele>5</ele>
        <time>2018-04-16T14:13:51Z</time>
      </trkpt>
      <trkpt lat="49.28689" lon="-0.11598">
        <ele>5</ele>
        <time>2018-04-16T14:13:58Z</time>
      </trkpt>
      <trkpt lat="49.28688" lon="-0.11612">
        <ele>5</ele>
        <time>2018-04-16T14:14:04Z</time>
      </trkpt>
      <trkpt lat="49.2869" lon="-0.11624">
        <ele>5</ele>
        <time>2018-04-16T14:14:09Z</time>
      </trkpt>
      <trkpt lat="49.2869" lon="-0.11636">
        <ele>5</ele>
        <time>2018-04-16T14:14:14Z</time>
      </trkpt>
      <trkpt lat="49.28691" lon="-0.11647">
        <ele>5</ele>
        <time>2018-04-16T14:14:21Z</time>
      </trkpt>
      <trkpt lat="49.28693" lon="-0.11658">
        <ele>5</ele>
        <time>2018-04-16T14:14:28Z</time>
      </trkpt>
      <trkpt lat="49.28695" lon="-0.1167">
        <ele>5</ele>
        <time>2018-04-16T14:14:35Z</time>
      </trkpt>
      <trkpt lat="49.28692" lon="-0.11679">
        <ele>5</ele>
        <time>2018-04-16T14:14:42Z</time>
      </trkpt>
      <trkpt lat="49.28692" lon="-0.1169">
        <ele>5</ele>
        <time>2018-04-16T14:14:49Z</time>
      </trkpt>
      <trkpt lat="49.28693" lon="-0.11702">
        <ele>5</ele>
        <time>2018-04-16T14:14:56Z</time>
      </trkpt>
      <trkpt lat="49.28693" lon="-0.11713">
        <ele>5</ele>
        <time>2018-04-16T14:15:03Z</time>
      </trkpt>
      <trkpt lat="49.28694" lon="-0.11723">
        <ele>5</ele>
        <time>2018-04-16T14:15:09Z</time>
      </trkpt>
      <trkpt lat="49.28694" lon="-0.11736">
        <ele>5</ele>
        <time>2018-04-16T14:15:16Z</time>
      </trkpt>
      <trkpt lat="49.28693" lon="-0.11747">
        <ele>5</ele>
        <time>2018-04-16T14:15:22Z</time>
      </trkpt>
      <trkpt lat="49.28693" lon="-0.11758">
        <ele>5</ele>
        <time>2018-04-16T14:15:29Z</time>
      </trkpt>
      <trkpt lat="49.28692" lon="-0.1177">
        <ele>5</ele>
        <time>2018-04-16T14:15:35Z</time>
      </trkpt>
      <trkpt lat="49.28689" lon="-0.11781">
        <ele>5</ele>
        <time>2018-04-16T14:15:42Z</time>
      </trkpt>
      <trkpt lat="49.28689" lon="-0.11792">
        <ele>5</ele>
        <time>2018-04-16T14:15:48Z</time>
      </trkpt>
      <trkpt lat="49.28688" lon="-0.11805">
        <ele>5</ele>
        <time>2018-04-16T14:15:54Z</time>
      </trkpt>
      <trkpt lat="49.28689" lon="-0.11816">
        <ele>5</ele>
        <time>2018-04-16T14:16:01Z</time>
      </trkpt>
      <trkpt lat="49.28691" lon="-0.11827">
        <ele>5</ele>
        <time>2018-04-16T14:16:08Z</time>
      </trkpt>
      <trkpt lat="49.28689" lon="-0.1184">
        <ele>4</ele>
        <time>2018-04-16T14:16:15Z</time>
      </trkpt>
      <trkpt lat="49.28689" lon="-0.11852">
        <ele>4</ele>
        <time>2018-04-16T14:16:22Z</time>
      </trkpt>
      <trkpt lat="49.28689" lon="-0.11864">
        <ele>4</ele>
        <time>2018-04-16T14:16:29Z</time>
      </trkpt>
      <trkpt lat="49.28692" lon="-0.11874">
        <ele>4</ele>
        <time>2018-04-16T14:16:35Z</time>
      </trkpt>
      <trkpt lat="49.28694" lon="-0.11883">
        <ele>4</ele>
        <time>2018-04-16T14:16:42Z</time>
      </trkpt>
      <trkpt lat="49.28698" lon="-0.11892">
        <ele>4</ele>
        <time>2018-04-16T14:16:49Z</time>
      </trkpt>
      <trkpt lat="49.28701" lon="-0.11903">
        <ele>4</ele>
        <time>2018-04-16T14:16:54Z</time>
      </trkpt>
      <trkpt lat="49.28703" lon="-0.11913">
        <ele>4</ele>
        <time>2018-04-16T14:17:01Z</time>
      </trkpt>
      <trkpt lat="49.28706" lon="-0.11924">
        <ele>3</ele>
        <time>2018-04-16T14:17:08Z</time>
      </trkpt>
      <trkpt lat="49.2871" lon="-0.11934">
        <ele>3</ele>
        <time>2018-04-16T14:17:13Z</time>
      </trkpt>
      <trkpt lat="49.28711" lon="-0.11944">
        <ele>3</ele>
        <time>2018-04-16T14:17:20Z</time>
      </trkpt>
      <trkpt lat="49.28713" lon="-0.11954">
        <ele>3</ele>
        <time>2018-04-16T14:17:26Z</time>
      </trkpt>
      <trkpt lat="49.28716" lon="-0.11966">
        <ele>3</ele>
        <time>2018-04-16T14:17:33Z</time>
      </trkpt>
      <trkpt lat="49.28719" lon="-0.11976">
        <ele>3</ele>
        <time>2018-04-16T14:17:40Z</time>
      </trkpt>
      <trkpt lat="49.28721" lon="-0.11989">
        <ele>3</ele>
        <time>2018-04-16T14:17:45Z</time>
      </trkpt>
      <trkpt lat="49.28725" lon="-0.11999">
        <ele>3</ele>
        <time>2018-04-16T14:17:52Z</time>
      </trkpt>
      <trkpt lat="49.28728" lon="-0.12006">
        <ele>3</ele>
        <time>2018-04-16T14:17:59Z</time>
      </trkpt>
      <trkpt lat="49.28728" lon="-0.12008">
        <ele>3</ele>
        <time>2018-04-16T14:18:06Z</time>
      </trkpt>
      <trkpt lat="49.28729" lon="-0.12008">
        <ele>3</ele>
        <time>2018-04-16T14:18:11Z</time>
      </trkpt>
      <trkpt lat="49.28729" lon="-0.12007">
        <ele>3</ele>
        <time>2018-04-16T14:18:21Z</time>
      </trkpt>
      <trkpt lat="49.28729" lon="-0.12007">
        <ele>3</ele>
        <time>2018-04-16T14:18:22Z</time>
      </trkpt>
      <trkpt lat="49.28734" lon="-0.12014">
        <ele>3</ele>
        <time>2018-04-16T14:18:46Z</time>
      </trkpt>
      <trkpt lat="49.28732" lon="-0.12024">
        <ele>3</ele>
        <time>2018-04-16T14:18:53Z</time>
      </trkpt>
      <trkpt lat="49.2873" lon="-0.12031">
        <ele>3</ele>
        <time>2018-04-16T14:19:00Z</time>
      </trkpt>
      <trkpt lat="49.28734" lon="-0.12042">
        <ele>3</ele>
        <time>2018-04-16T14:19:06Z</time>
      </trkpt>
      <trkpt lat="49.28737" lon="-0.12049">
        <ele>3</ele>
        <time>2018-04-16T14:19:13Z</time>
      </trkpt>
      <trkpt lat="49.28738" lon="-0.12058">
        <ele>3</ele>
        <time>2018-04-16T14:19:20Z</time>
      </trkpt>
      <trkpt lat="49.28742" lon="-0.12069">
        <ele>4</ele>
        <time>2018-04-16T14:19:28Z</time>
      </trkpt>
      <trkpt lat="49.28745" lon="-0.12077">
        <ele>4</ele>
        <time>2018-04-16T14:19:35Z</time>
      </trkpt>
      <trkpt lat="49.28749" lon="-0.12088">
        <ele>4</ele>
        <time>2018-04-16T14:19:41Z</time>
      </trkpt>
      <trkpt lat="49.28751" lon="-0.12098">
        <ele>4</ele>
        <time>2018-04-16T14:19:47Z</time>
      </trkpt>
      <trkpt lat="49.28753" lon="-0.1211">
        <ele>4</ele>
        <time>2018-04-16T14:19:53Z</time>
      </trkpt>
      <trkpt lat="49.28756" lon="-0.12121">
        <ele>4</ele>
        <time>2018-04-16T14:19:59Z</time>
      </trkpt>
      <trkpt lat="49.28758" lon="-0.1213">
        <ele>4</ele>
        <time>2018-04-16T14:20:06Z</time>
      </trkpt>
      <trkpt lat="49.28761" lon="-0.12142">
        <ele>4</ele>
        <time>2018-04-16T14:20:13Z</time>
      </trkpt>
      <trkpt lat="49.28761" lon="-0.12146">
        <ele>4</ele>
        <time>2018-04-16T14:20:20Z</time>
      </trkpt>
      <trkpt lat="49.28764" lon="-0.12157">
        <ele>4</ele>
        <time>2018-04-16T14:20:26Z</time>
      </trkpt>
      <trkpt lat="49.28767" lon="-0.12166">
        <ele>4</ele>
        <time>2018-04-16T14:20:33Z</time>
      </trkpt>
      <trkpt lat="49.2877" lon="-0.12177">
        <ele>3</ele>
        <time>2018-04-16T14:20:40Z</time>
      </trkpt>
      <trkpt lat="49.28774" lon="-0.12188">
        <ele>4</ele>
        <time>2018-04-16T14:20:47Z</time>
      </trkpt>
      <trkpt lat="49.28777" lon="-0.12195">
        <ele>4</ele>
        <time>2018-04-16T14:20:54Z</time>
      </trkpt>
      <trkpt lat="49.28777" lon="-0.12195">
        <ele>4</ele>
        <time>2018-04-16T14:20:59Z</time>
      </trkpt>
      <trkpt lat="49.28778" lon="-0.12195">
        <ele>4</ele>
        <time>2018-04-16T14:21:07Z</time>
      </trkpt>
      <trkpt lat="49.28779" lon="-0.12195">
        <ele>4</ele>
        <time>2018-04-16T14:21:08Z</time>
      </trkpt>
      <trkpt lat="49.28777" lon="-0.12207">
        <ele>4</ele>
        <time>2018-04-16T14:21:32Z</time>
      </trkpt>
      <trkpt lat="49.28776" lon="-0.12216">
        <ele>4</ele>
        <time>2018-04-16T14:21:39Z</time>
      </trkpt>
      <trkpt lat="49.28775" lon="-0.12228">
        <ele>4</ele>
        <time>2018-04-16T14:21:45Z</time>
      </trkpt>
      <trkpt lat="49.28772" lon="-0.12238">
        <ele>3</ele>
        <time>2018-04-16T14:21:52Z</time>
      </trkpt>
      <trkpt lat="49.28765" lon="-0.12242">
        <ele>3</ele>
        <time>2018-04-16T14:21:59Z</time>
      </trkpt>
      <trkpt lat="49.28759" lon="-0.12246">
        <ele>3</ele>
        <time>2018-04-16T14:22:06Z</time>
      </trkpt>
      <trkpt lat="49.28763" lon="-0.12246">
        <ele>3</ele>
        <time>2018-04-16T14:22:13Z</time>
      </trkpt>
      <trkpt lat="49.28764" lon="-0.12246">
        <ele>3</ele>
        <time>2018-04-16T14:22:17Z</time>
      </trkpt>
      <trkpt lat="49.28766" lon="-0.12243">
        <ele>3</ele>
        <time>2018-04-16T14:22:27Z</time>
      </trkpt>
      <trkpt lat="49.28766" lon="-0.12243">
        <ele>3</ele>
        <time>2018-04-16T14:22:28Z</time>
      </trkpt>
      <trkpt lat="49.28766" lon="-0.12246">
        <ele>3</ele>
        <time>2018-04-16T14:22:37Z</time>
      </trkpt>
      <trkpt lat="49.28767" lon="-0.1226">
        <ele>3</ele>
        <time>2018-04-16T14:22:43Z</time>
      </trkpt>
      <trkpt lat="49.28766" lon="-0.12271">
        <ele>4</ele>
        <time>2018-04-16T14:22:49Z</time>
      </trkpt>
      <trkpt lat="49.28771" lon="-0.12281">
        <ele>4</ele>
        <time>2018-04-16T14:22:55Z</time>
      </trkpt>
      <trkpt lat="49.2877" lon="-0.12294">
        <ele>4</ele>
        <time>2018-04-16T14:23:01Z</time>
      </trkpt>
      <trkpt lat="49.28772" lon="-0.12295">
        <ele>4</ele>
        <time>2018-04-16T14:23:08Z</time>
      </trkpt>
      <trkpt lat="49.28772" lon="-0.12295">
        <ele>4</ele>
        <time>2018-04-16T14:23:13Z</time>
      </trkpt>
      <trkpt lat="49.28775" lon="-0.12297">
        <ele>4</ele>
        <time>2018-04-16T14:23:21Z</time>
      </trkpt>
      <trkpt lat="49.28779" lon="-0.12299">
        <ele>4</ele>
        <time>2018-04-16T14:23:28Z</time>
      </trkpt>
      <trkpt lat="49.28779" lon="-0.12302">
        <ele>4</ele>
        <time>2018-04-16T14:23:35Z</time>
      </trkpt>
      <trkpt lat="49.28779" lon="-0.12302">
        <ele>4</ele>
        <time>2018-04-16T14:23:36Z</time>
      </trkpt>
      <trkpt lat="49.28779" lon="-0.12304">
        <ele>4</ele>
        <time>2018-04-16T14:23:44Z</time>
      </trkpt>
      <trkpt lat="49.28779" lon="-0.12304">
        <ele>4</ele>
        <time>2018-04-16T14:23:45Z</time>
      </trkpt>
      <trkpt lat="49.28786" lon="-0.12308">
        <ele>4</ele>
        <time>2018-04-16T14:23:51Z</time>
      </trkpt>
      <trkpt lat="49.28791" lon="-0.12308">
        <ele>4</ele>
        <time>2018-04-16T14:23:58Z</time>
      </trkpt>
      <trkpt lat="49.28799" lon="-0.12311">
        <ele>4</ele>
        <time>2018-04-16T14:24:05Z</time>
      </trkpt>
      <trkpt lat="49.28805" lon="-0.12313">
        <ele>4</ele>
        <time>2018-04-16T14:24:12Z</time>
      </trkpt>
      <trkpt lat="49.28813" lon="-0.12315">
        <ele>4</ele>
        <time>2018-04-16T14:24:19Z</time>
      </trkpt>
      <trkpt lat="49.28819" lon="-0.12316">
        <ele>4</ele>
        <time>2018-04-16T14:24:26Z</time>
      </trkpt>
      <trkpt lat="49.28827" lon="-0.1232">
        <ele>4</ele>
        <time>2018-04-16T14:24:33Z</time>
      </trkpt>
      <trkpt lat="49.28835" lon="-0.12324">
        <ele>4</ele>
        <time>2018-04-16T14:24:40Z</time>
      </trkpt>
      <trkpt lat="49.28842" lon="-0.12326">
        <ele>4</ele>
        <time>2018-04-16T14:24:47Z</time>
      </trkpt>
      <trkpt lat="49.28849" lon="-0.12326">
        <ele>4</ele>
        <time>2018-04-16T14:24:54Z</time>
      </trkpt>
      <trkpt lat="49.28856" lon="-0.12327">
        <ele>4</ele>
        <time>2018-04-16T14:25:00Z</time>
      </trkpt>
      <trkpt lat="49.28862" lon="-0.12327">
        <ele>4</ele>
        <time>2018-04-16T14:25:07Z</time>
      </trkpt>
      <trkpt lat="49.2887" lon="-0.12329">
        <ele>4</ele>
        <time>2018-04-16T14:25:14Z</time>
      </trkpt>
      <trkpt lat="49.28874" lon="-0.12329">
        <ele>4</ele>
        <time>2018-04-16T14:25:21Z</time>
      </trkpt>
      <trkpt lat="49.28874" lon="-0.12329">
        <ele>4</ele>
        <time>2018-04-16T14:25:24Z</time>
      </trkpt>
      <trkpt lat="49.28873" lon="-0.12334">
        <ele>5</ele>
        <time>2018-04-16T14:25:31Z</time>
      </trkpt>
      <trkpt lat="49.28872" lon="-0.12345">
        <ele>5</ele>
        <time>2018-04-16T14:25:38Z</time>
      </trkpt>
      <trkpt lat="49.28877" lon="-0.1235">
        <ele>5</ele>
        <time>2018-04-16T14:25:45Z</time>
      </trkpt>
      <trkpt lat="49.28882" lon="-0.1235">
        <ele>5</ele>
        <time>2018-04-16T14:25:52Z</time>
      </trkpt>
      <trkpt lat="49.28888" lon="-0.12354">
        <ele>5</ele>
        <time>2018-04-16T14:25:59Z</time>
      </trkpt>
      <trkpt lat="49.28895" lon="-0.12354">
        <ele>5</ele>
        <time>2018-04-16T14:26:06Z</time>
      </trkpt>
      <trkpt lat="49.28903" lon="-0.1236">
        <ele>5</ele>
        <time>2018-04-16T14:26:13Z</time>
      </trkpt>
      <trkpt lat="49.28908" lon="-0.12361">
        <ele>5</ele>
        <time>2018-04-16T14:26:20Z</time>
      </trkpt>
      <trkpt lat="49.28912" lon="-0.12362">
        <ele>5</ele>
        <time>2018-04-16T14:26:27Z</time>
      </trkpt>
      <trkpt lat="49.2892" lon="-0.12364">
        <ele>5</ele>
        <time>2018-04-16T14:26:33Z</time>
      </trkpt>
      <trkpt lat="49.28927" lon="-0.12368">
        <ele>5</ele>
        <time>2018-04-16T14:26:39Z</time>
      </trkpt>
      <trkpt lat="49.2893" lon="-0.12368">
        <ele>5</ele>
        <time>2018-04-16T14:26:46Z</time>
      </trkpt>
      <trkpt lat="49.28938" lon="-0.12373">
        <ele>5</ele>
        <time>2018-04-16T14:26:53Z</time>
      </trkpt>
      <trkpt lat="49.28945" lon="-0.12375">
        <ele>5</ele>
        <time>2018-04-16T14:26:59Z</time>
      </trkpt>
      <trkpt lat="49.2895" lon="-0.12375">
        <ele>5</ele>
        <time>2018-04-16T14:27:06Z</time>
      </trkpt>
      <trkpt lat="49.28957" lon="-0.1238">
        <ele>5</ele>
        <time>2018-04-16T14:27:13Z</time>
      </trkpt>
      <trkpt lat="49.28965" lon="-0.12381">
        <ele>5</ele>
        <time>2018-04-16T14:27:19Z</time>
      </trkpt>
      <trkpt lat="49.28972" lon="-0.12382">
        <ele>5</ele>
        <time>2018-04-16T14:27:24Z</time>
      </trkpt>
      <trkpt lat="49.28977" lon="-0.12386">
        <ele>5</ele>
        <time>2018-04-16T14:27:31Z</time>
      </trkpt>
      <trkpt lat="49.28979" lon="-0.12385">
        <ele>5</ele>
        <time>2018-04-16T14:27:38Z</time>
      </trkpt>
      <trkpt lat="49.28987" lon="-0.12385">
        <ele>5</ele>
        <time>2018-04-16T14:27:44Z</time>
      </trkpt>
      <trkpt lat="49.28995" lon="-0.12387">
        <ele>5</ele>
        <time>2018-04-16T14:27:49Z</time>
      </trkpt>
      <trkpt lat="49.29002" lon="-0.12392">
        <ele>6</ele>
        <time>2018-04-16T14:27:55Z</time>
      </trkpt>
      <trkpt lat="49.29005" lon="-0.12395">
        <ele>6</ele>
        <time>2018-04-16T14:28:02Z</time>
      </trkpt>
      <trkpt lat="49.29011" lon="-0.12396">
        <ele>6</ele>
        <time>2018-04-16T14:28:09Z</time>
      </trkpt>
      <trkpt lat="49.29017" lon="-0.12398">
        <ele>6</ele>
        <time>2018-04-16T14:28:16Z</time>
      </trkpt>
      <trkpt lat="49.29021" lon="-0.12399">
        <ele>6</ele>
        <time>2018-04-16T14:28:23Z</time>
      </trkpt>
      <trkpt lat="49.29025" lon="-0.12401">
        <ele>6</ele>
        <time>2018-04-16T14:28:30Z</time>
      </trkpt>
      <trkpt lat="49.29032" lon="-0.12403">
        <ele>6</ele>
        <time>2018-04-16T14:28:37Z</time>
      </trkpt>
      <trkpt lat="49.29034" lon="-0.12403">
        <ele>6</ele>
        <time>2018-04-16T14:28:44Z</time>
      </trkpt>
      <trkpt lat="49.29036" lon="-0.12405">
        <ele>6</ele>
        <time>2018-04-16T14:28:48Z</time>
      </trkpt>
      <trkpt lat="49.29037" lon="-0.12403">
        <ele>6</ele>
        <time>2018-04-16T14:29:03Z</time>
      </trkpt>
      <trkpt lat="49.29036" lon="-0.12403">
        <ele>6</ele>
        <time>2018-04-16T14:29:06Z</time>
      </trkpt>
      <trkpt lat="49.29037" lon="-0.12402">
        <ele>6</ele>
        <time>2018-04-16T14:29:14Z</time>
      </trkpt>
      <trkpt lat="49.29038" lon="-0.124">
        <ele>6</ele>
        <time>2018-04-16T14:29:20Z</time>
      </trkpt>
      <trkpt lat="49.29038" lon="-0.12399">
        <ele>6</ele>
        <time>2018-04-16T14:29:28Z</time>
      </trkpt>
      <trkpt lat="49.29038" lon="-0.12398">
        <ele>6</ele>
        <time>2018-04-16T14:29:29Z</time>
      </trkpt>
      <trkpt lat="49.29037" lon="-0.12398">
        <ele>6</ele>
        <time>2018-04-16T14:29:47Z</time>
      </trkpt>
      <trkpt lat="49.29037" lon="-0.12398">
        <ele>6</ele>
        <time>2018-04-16T14:29:48Z</time>
      </trkpt>
      <trkpt lat="49.29037" lon="-0.12396">
        <ele>6</ele>
        <time>2018-04-16T14:30:03Z</time>
      </trkpt>
      <trkpt lat="49.29037" lon="-0.12396">
        <ele>6</ele>
        <time>2018-04-16T14:30:04Z</time>
      </trkpt>
      <trkpt lat="49.29043" lon="-0.12403">
        <ele>6</ele>
        <time>2018-04-16T14:31:08Z</time>
      </trkpt>
      <trkpt lat="49.29049" lon="-0.12405">
        <ele>6</ele>
        <time>2018-04-16T14:31:15Z</time>
      </trkpt>
      <trkpt lat="49.29056" lon="-0.12407">
        <ele>6</ele>
        <time>2018-04-16T14:31:22Z</time>
      </trkpt>
      <trkpt lat="49.2906" lon="-0.12409">
        <ele>6</ele>
        <time>2018-04-16T14:31:29Z</time>
      </trkpt>
      <trkpt lat="49.29067" lon="-0.1241">
        <ele>6</ele>
        <time>2018-04-16T14:31:36Z</time>
      </trkpt>
      <trkpt lat="49.29074" lon="-0.12413">
        <ele>7</ele>
        <time>2018-04-16T14:31:43Z</time>
      </trkpt>
      <trkpt lat="49.29081" lon="-0.12415">
        <ele>7</ele>
        <time>2018-04-16T14:31:49Z</time>
      </trkpt>
      <trkpt lat="49.29088" lon="-0.12417">
        <ele>7</ele>
        <time>2018-04-16T14:31:54Z</time>
      </trkpt>
      <trkpt lat="49.29097" lon="-0.12421">
        <ele>8</ele>
        <time>2018-04-16T14:31:59Z</time>
      </trkpt>
      <trkpt lat="49.29105" lon="-0.12423">
        <ele>8</ele>
        <time>2018-04-16T14:32:06Z</time>
      </trkpt>
      <trkpt lat="49.29112" lon="-0.12424">
        <ele>9</ele>
        <time>2018-04-16T14:32:13Z</time>
      </trkpt>
      <trkpt lat="49.29117" lon="-0.12428">
        <ele>9</ele>
        <time>2018-04-16T14:32:20Z</time>
      </trkpt>
      <trkpt lat="49.29125" lon="-0.12429">
        <ele>9</ele>
        <time>2018-04-16T14:32:26Z</time>
      </trkpt>
      <trkpt lat="49.29131" lon="-0.12433">
        <ele>9</ele>
        <time>2018-04-16T14:32:31Z</time>
      </trkpt>
      <trkpt lat="49.29138" lon="-0.12434">
        <ele>9</ele>
        <time>2018-04-16T14:32:38Z</time>
      </trkpt>
      <trkpt lat="49.29146" lon="-0.12436">
        <ele>9</ele>
        <time>2018-04-16T14:32:45Z</time>
      </trkpt>
      <trkpt lat="49.29154" lon="-0.12438">
        <ele>10</ele>
        <time>2018-04-16T14:32:52Z</time>
      </trkpt>
      <trkpt lat="49.29161" lon="-0.12443">
        <ele>10</ele>
        <time>2018-04-16T14:32:58Z</time>
      </trkpt>
      <trkpt lat="49.29169" lon="-0.12445">
        <ele>10</ele>
        <time>2018-04-16T14:33:03Z</time>
      </trkpt>
      <trkpt lat="49.29176" lon="-0.12447">
        <ele>10</ele>
        <time>2018-04-16T14:33:09Z</time>
      </trkpt>
      <trkpt lat="49.29184" lon="-0.12447">
        <ele>10</ele>
        <time>2018-04-16T14:33:15Z</time>
      </trkpt>
      <trkpt lat="49.29193" lon="-0.1245">
        <ele>10</ele>
        <time>2018-04-16T14:33:21Z</time>
      </trkpt>
      <trkpt lat="49.292" lon="-0.12452">
        <ele>10</ele>
        <time>2018-04-16T14:33:26Z</time>
      </trkpt>
      <trkpt lat="49.29207" lon="-0.12456">
        <ele>10</ele>
        <time>2018-04-16T14:33:32Z</time>
      </trkpt>
      <trkpt lat="49.29214" lon="-0.12457">
        <ele>10</ele>
        <time>2018-04-16T14:33:39Z</time>
      </trkpt>
      <trkpt lat="49.29222" lon="-0.12461">
        <ele>11</ele>
        <time>2018-04-16T14:33:46Z</time>
      </trkpt>
      <trkpt lat="49.29223" lon="-0.12464">
        <ele>11</ele>
        <time>2018-04-16T14:33:53Z</time>
      </trkpt>
      <trkpt lat="49.29223" lon="-0.12464">
        <ele>11</ele>
        <time>2018-04-16T14:33:57Z</time>
      </trkpt>
      <trkpt lat="49.29223" lon="-0.12463">
        <ele>11</ele>
        <time>2018-04-16T14:34:06Z</time>
      </trkpt>
      <trkpt lat="49.29223" lon="-0.12463">
        <ele>11</ele>
        <time>2018-04-16T14:34:07Z</time>
      </trkpt>
      <trkpt lat="49.2923" lon="-0.1246">
        <ele>11</ele>
        <time>2018-04-16T14:34:17Z</time>
      </trkpt>
      <trkpt lat="49.29231" lon="-0.12464">
        <ele>11</ele>
        <time>2018-04-16T14:34:24Z</time>
      </trkpt>
      <trkpt lat="49.29236" lon="-0.12472">
        <ele>11</ele>
        <time>2018-04-16T14:34:31Z</time>
      </trkpt>
      <trkpt lat="49.29237" lon="-0.12482">
        <ele>11</ele>
        <time>2018-04-16T14:34:37Z</time>
      </trkpt>
      <trkpt lat="49.29236" lon="-0.12493">
        <ele>11</ele>
        <time>2018-04-16T14:34:44Z</time>
      </trkpt>
      <trkpt lat="49.29233" lon="-0.12506">
        <ele>11</ele>
        <time>2018-04-16T14:34:50Z</time>
      </trkpt>
      <trkpt lat="49.29231" lon="-0.12517">
        <ele>11</ele>
        <time>2018-04-16T14:34:56Z</time>
      </trkpt>
      <trkpt lat="49.29229" lon="-0.12531">
        <ele>11</ele>
        <time>2018-04-16T14:35:02Z</time>
      </trkpt>
      <trkpt lat="49.29226" lon="-0.12541">
        <ele>11</ele>
        <time>2018-04-16T14:35:08Z</time>
      </trkpt>
      <trkpt lat="49.29222" lon="-0.12551">
        <ele>10</ele>
        <time>2018-04-16T14:35:14Z</time>
      </trkpt>
      <trkpt lat="49.29219" lon="-0.12562">
        <ele>10</ele>
        <time>2018-04-16T14:35:20Z</time>
      </trkpt>
      <trkpt lat="49.29215" lon="-0.12574">
        <ele>10</ele>
        <time>2018-04-16T14:35:25Z</time>
      </trkpt>
      <trkpt lat="49.29211" lon="-0.12584">
        <ele>9</ele>
        <time>2018-04-16T14:35:30Z</time>
      </trkpt>
      <trkpt lat="49.29209" lon="-0.12595">
        <ele>9</ele>
        <time>2018-04-16T14:35:36Z</time>
      </trkpt>
      <trkpt lat="49.29209" lon="-0.12604">
        <ele>8</ele>
        <time>2018-04-16T14:35:41Z</time>
      </trkpt>
      <trkpt lat="49.29208" lon="-0.12617">
        <ele>8</ele>
        <time>2018-04-16T14:35:47Z</time>
      </trkpt>
      <trkpt lat="49.29206" lon="-0.12628">
        <ele>8</ele>
        <time>2018-04-16T14:35:53Z</time>
      </trkpt>
      <trkpt lat="49.29203" lon="-0.12637">
        <ele>8</ele>
        <time>2018-04-16T14:36:00Z</time>
      </trkpt>
      <trkpt lat="49.29203" lon="-0.12636">
        <ele>8</ele>
        <time>2018-04-16T14:36:07Z</time>
      </trkpt>
      <trkpt lat="49.29202" lon="-0.12637">
        <ele>8</ele>
        <time>2018-04-16T14:36:09Z</time>
      </trkpt>
      <trkpt lat="49.29202" lon="-0.12637">
        <ele>8</ele>
        <time>2018-04-16T14:36:20Z</time>
      </trkpt>
      <trkpt lat="49.29202" lon="-0.12637">
        <ele>8</ele>
        <time>2018-04-16T14:36:21Z</time>
      </trkpt>
      <trkpt lat="49.29202" lon="-0.12645">
        <ele>7</ele>
        <time>2018-04-16T14:36:28Z</time>
      </trkpt>
      <trkpt lat="49.292" lon="-0.12656">
        <ele>7</ele>
        <time>2018-04-16T14:36:34Z</time>
      </trkpt>
      <trkpt lat="49.29199" lon="-0.1267">
        <ele>6</ele>
        <time>2018-04-16T14:36:40Z</time>
      </trkpt>
      <trkpt lat="49.29196" lon="-0.12681">
        <ele>6</ele>
        <time>2018-04-16T14:36:45Z</time>
      </trkpt>
      <trkpt lat="49.29192" lon="-0.12692">
        <ele>6</ele>
        <time>2018-04-16T14:36:50Z</time>
      </trkpt>
      <trkpt lat="49.2919" lon="-0.12701">
        <ele>6</ele>
        <time>2018-04-16T14:36:56Z</time>
      </trkpt>
      <trkpt lat="49.29189" lon="-0.12715">
        <ele>6</ele>
        <time>2018-04-16T14:37:03Z</time>
      </trkpt>
      <trkpt lat="49.29186" lon="-0.12728">
        <ele>6</ele>
        <time>2018-04-16T14:37:09Z</time>
      </trkpt>
      <trkpt lat="49.29184" lon="-0.1274">
        <ele>6</ele>
        <time>2018-04-16T14:37:14Z</time>
      </trkpt>
      <trkpt lat="49.29182" lon="-0.12751">
        <ele>6</ele>
        <time>2018-04-16T14:37:20Z</time>
      </trkpt>
      <trkpt lat="49.2918" lon="-0.12763">
        <ele>6</ele>
        <time>2018-04-16T14:37:27Z</time>
      </trkpt>
      <trkpt lat="49.29178" lon="-0.12773">
        <ele>6</ele>
        <time>2018-04-16T14:37:33Z</time>
      </trkpt>
      <trkpt lat="49.29176" lon="-0.12784">
        <ele>6</ele>
        <time>2018-04-16T14:37:38Z</time>
      </trkpt>
      <trkpt lat="49.29173" lon="-0.12798">
        <ele>5</ele>
        <time>2018-04-16T14:37:44Z</time>
      </trkpt>
      <trkpt lat="49.29171" lon="-0.12809">
        <ele>5</ele>
        <time>2018-04-16T14:37:51Z</time>
      </trkpt>
      <trkpt lat="49.2917" lon="-0.12822">
        <ele>5</ele>
        <time>2018-04-16T14:37:57Z</time>
      </trkpt>
      <trkpt lat="49.29165" lon="-0.12831">
        <ele>5</ele>
        <time>2018-04-16T14:38:02Z</time>
      </trkpt>
      <trkpt lat="49.29161" lon="-0.12842">
        <ele>5</ele>
        <time>2018-04-16T14:38:08Z</time>
      </trkpt>
      <trkpt lat="49.29158" lon="-0.12853">
        <ele>5</ele>
        <time>2018-04-16T14:38:14Z</time>
      </trkpt>
      <trkpt lat="49.29157" lon="-0.12866">
        <ele>5</ele>
        <time>2018-04-16T14:38:20Z</time>
      </trkpt>
      <trkpt lat="49.29157" lon="-0.12877">
        <ele>5</ele>
        <time>2018-04-16T14:38:25Z</time>
      </trkpt>
      <trkpt lat="49.29155" lon="-0.12888">
        <ele>5</ele>
        <time>2018-04-16T14:38:30Z</time>
      </trkpt>
      <trkpt lat="49.29152" lon="-0.129">
        <ele>4</ele>
        <time>2018-04-16T14:38:36Z</time>
      </trkpt>
      <trkpt lat="49.29148" lon="-0.12911">
        <ele>4</ele>
        <time>2018-04-16T14:38:42Z</time>
      </trkpt>
      <trkpt lat="49.29147" lon="-0.12923">
        <ele>3</ele>
        <time>2018-04-16T14:38:48Z</time>
      </trkpt>
      <trkpt lat="49.29144" lon="-0.12935">
        <ele>4</ele>
        <time>2018-04-16T14:38:54Z</time>
      </trkpt>
      <trkpt lat="49.29142" lon="-0.12947">
        <ele>4</ele>
        <time>2018-04-16T14:38:59Z</time>
      </trkpt>
      <trkpt lat="49.2914" lon="-0.12959">
        <ele>5</ele>
        <time>2018-04-16T14:39:06Z</time>
      </trkpt>
      <trkpt lat="49.29137" lon="-0.1297">
        <ele>5</ele>
        <time>2018-04-16T14:39:13Z</time>
      </trkpt>
      <trkpt lat="49.29132" lon="-0.12981">
        <ele>5</ele>
        <time>2018-04-16T14:39:18Z</time>
      </trkpt>
      <trkpt lat="49.29128" lon="-0.12992">
        <ele>5</ele>
        <time>2018-04-16T14:39:24Z</time>
      </trkpt>
      <trkpt lat="49.29129" lon="-0.13005">
        <ele>6</ele>
        <time>2018-04-16T14:39:30Z</time>
      </trkpt>
      <trkpt lat="49.29127" lon="-0.13017">
        <ele>6</ele>
        <time>2018-04-16T14:39:36Z</time>
      </trkpt>
      <trkpt lat="49.29124" lon="-0.13028">
        <ele>6</ele>
        <time>2018-04-16T14:39:41Z</time>
      </trkpt>
      <trkpt lat="49.29124" lon="-0.13041">
        <ele>6</ele>
        <time>2018-04-16T14:39:47Z</time>
      </trkpt>
      <trkpt lat="49.29123" lon="-0.13052">
        <ele>6</ele>
        <time>2018-04-16T14:39:53Z</time>
      </trkpt>
      <trkpt lat="49.29121" lon="-0.13062">
        <ele>6</ele>
        <time>2018-04-16T14:39:59Z</time>
      </trkpt>
      <trkpt lat="49.29119" lon="-0.13074">
        <ele>6</ele>
        <time>2018-04-16T14:40:05Z</time>
      </trkpt>
      <trkpt lat="49.29117" lon="-0.13086">
        <ele>7</ele>
        <time>2018-04-16T14:40:11Z</time>
      </trkpt>
      <trkpt lat="49.29116" lon="-0.13097">
        <ele>7</ele>
        <time>2018-04-16T14:40:18Z</time>
      </trkpt>
      <trkpt lat="49.29114" lon="-0.13108">
        <ele>7</ele>
        <time>2018-04-16T14:40:25Z</time>
      </trkpt>
      <trkpt lat="49.29112" lon="-0.13117">
        <ele>7</ele>
        <time>2018-04-16T14:40:32Z</time>
      </trkpt>
      <trkpt lat="49.29107" lon="-0.13125">
        <ele>7</ele>
        <time>2018-04-16T14:40:39Z</time>
      </trkpt>
      <trkpt lat="49.29105" lon="-0.13127">
        <ele>7</ele>
        <time>2018-04-16T14:40:46Z</time>
      </trkpt>
      <trkpt lat="49.29105" lon="-0.13127">
        <ele>7</ele>
        <time>2018-04-16T14:40:47Z</time>
      </trkpt>
    </trkseg>
  </trk>
</gpx>